<?xml version="1.0" encoding="UTF-8" standalone="no" ?>
<gpx xmlns="http://www.topografix.com/GPX/1/1" xmlns:xsi="http://www.w3.org/2001/XMLSchema-instance" xsi:schemaLocation="http://www.topografix.com/GPX/1/1 http://www.topografix.com/GPX/1/1/gpx.xsd" version="1.1" creator="VisuGPX - https://www.visugpx.com">
  <metadata>
    <name>2-2 PM 12 à Peyreleau</name>
  </metadata>
  <trk>
    <name><![CDATA[10784512-2-2 Les Vignes à Le Rozier par 12 et Jonte]]></name>
    <trkseg>
      <trkpt lat="44.20761" lon="3.29465">
        <ele>510</ele>
        <time>2020-01-04T20:00:45Z</time>
      </trkpt>
      <trkpt lat="44.20753" lon="3.29463">
        <ele>506</ele>
        <time>2020-01-04T20:00:46Z</time>
      </trkpt>
      <trkpt lat="44.20739" lon="3.29522">
        <ele>511</ele>
        <time>2020-01-04T20:00:57Z</time>
      </trkpt>
      <trkpt lat="44.20742" lon="3.29524">
        <ele>511</ele>
        <time>2020-01-04T20:00:58Z</time>
      </trkpt>
      <trkpt lat="44.20731" lon="3.2956">
        <ele>514</ele>
        <time>2020-01-04T20:01:04Z</time>
      </trkpt>
      <trkpt lat="44.2072" lon="3.2965">
        <ele>519</ele>
        <time>2020-01-04T20:01:19Z</time>
      </trkpt>
      <trkpt lat="44.20703" lon="3.29759">
        <ele>518</ele>
        <time>2020-01-04T20:01:38Z</time>
      </trkpt>
      <trkpt lat="44.20699" lon="3.29852">
        <ele>518</ele>
        <time>2020-01-04T20:01:54Z</time>
      </trkpt>
      <trkpt lat="44.20702" lon="3.2977">
        <ele>517</ele>
        <time>2020-01-04T20:02:08Z</time>
      </trkpt>
      <trkpt lat="44.20699" lon="3.29852">
        <ele>518</ele>
        <time>2020-01-04T20:02:21Z</time>
      </trkpt>
      <trkpt lat="44.2069" lon="3.29865">
        <ele>514</ele>
        <time>2020-01-04T20:02:24Z</time>
      </trkpt>
      <trkpt lat="44.20686" lon="3.29854">
        <ele>512</ele>
        <time>2020-01-04T20:02:26Z</time>
      </trkpt>
      <trkpt lat="44.2068" lon="3.29862">
        <ele>510</ele>
        <time>2020-01-04T20:02:28Z</time>
      </trkpt>
      <trkpt lat="44.20675" lon="3.2988">
        <ele>508</ele>
        <time>2020-01-04T20:02:32Z</time>
      </trkpt>
      <trkpt lat="44.20671" lon="3.29867">
        <ele>505</ele>
        <time>2020-01-04T20:02:34Z</time>
      </trkpt>
      <trkpt lat="44.20665" lon="3.29867">
        <ele>504</ele>
        <time>2020-01-04T20:02:35Z</time>
      </trkpt>
      <trkpt lat="44.20654" lon="3.29873">
        <ele>510</ele>
        <time>2020-01-04T20:02:38Z</time>
      </trkpt>
      <trkpt lat="44.20645" lon="3.29871">
        <ele>515</ele>
        <time>2020-01-04T20:02:40Z</time>
      </trkpt>
      <trkpt lat="44.20639" lon="3.29991">
        <ele>517</ele>
        <time>2020-01-04T20:03:00Z</time>
      </trkpt>
      <trkpt lat="44.2063" lon="3.30053">
        <ele>521</ele>
        <time>2020-01-04T20:03:11Z</time>
      </trkpt>
      <trkpt lat="44.20626" lon="3.30064">
        <ele>522</ele>
        <time>2020-01-04T20:03:13Z</time>
      </trkpt>
      <trkpt lat="44.20619" lon="3.30068">
        <ele>525</ele>
        <time>2020-01-04T20:03:15Z</time>
      </trkpt>
      <trkpt lat="44.20613" lon="3.30083">
        <ele>527</ele>
        <time>2020-01-04T20:03:18Z</time>
      </trkpt>
      <trkpt lat="44.20609" lon="3.30107">
        <ele>528</ele>
        <time>2020-01-04T20:03:22Z</time>
      </trkpt>
      <trkpt lat="44.20581" lon="3.30163">
        <ele>536</ele>
        <time>2020-01-04T20:03:33Z</time>
      </trkpt>
      <trkpt lat="44.20572" lon="3.30176">
        <ele>542</ele>
        <time>2020-01-04T20:03:36Z</time>
      </trkpt>
      <trkpt lat="44.20551" lon="3.30191">
        <ele>557</ele>
        <time>2020-01-04T20:03:42Z</time>
      </trkpt>
      <trkpt lat="44.20549" lon="3.30197">
        <ele>558</ele>
        <time>2020-01-04T20:03:43Z</time>
      </trkpt>
      <trkpt lat="44.20568" lon="3.30234">
        <ele>537</ele>
        <time>2020-01-04T20:03:50Z</time>
      </trkpt>
      <trkpt lat="44.20557" lon="3.30242">
        <ele>546</ele>
        <time>2020-01-04T20:03:53Z</time>
      </trkpt>
      <trkpt lat="44.20555" lon="3.30253">
        <ele>546</ele>
        <time>2020-01-04T20:03:55Z</time>
      </trkpt>
      <trkpt lat="44.20523" lon="3.30292">
        <ele>571</ele>
        <time>2020-01-04T20:04:05Z</time>
      </trkpt>
      <trkpt lat="44.20514" lon="3.30313">
        <ele>577</ele>
        <time>2020-01-04T20:04:09Z</time>
      </trkpt>
      <trkpt lat="44.20499" lon="3.30332">
        <ele>588</ele>
        <time>2020-01-04T20:04:14Z</time>
      </trkpt>
      <trkpt lat="44.20501" lon="3.30369">
        <ele>581</ele>
        <time>2020-01-04T20:04:20Z</time>
      </trkpt>
      <trkpt lat="44.20499" lon="3.30382">
        <ele>581</ele>
        <time>2020-01-04T20:04:22Z</time>
      </trkpt>
      <trkpt lat="44.20491" lon="3.30405">
        <ele>584</ele>
        <time>2020-01-04T20:04:27Z</time>
      </trkpt>
      <trkpt lat="44.20495" lon="3.30433">
        <ele>576</ele>
        <time>2020-01-04T20:04:31Z</time>
      </trkpt>
      <trkpt lat="44.20491" lon="3.3047">
        <ele>574</ele>
        <time>2020-01-04T20:04:38Z</time>
      </trkpt>
      <trkpt lat="44.20463" lon="3.30543">
        <ele>591</ele>
        <time>2020-01-04T20:04:52Z</time>
      </trkpt>
      <trkpt lat="44.20459" lon="3.3056">
        <ele>593</ele>
        <time>2020-01-04T20:04:55Z</time>
      </trkpt>
      <trkpt lat="44.20459" lon="3.30577">
        <ele>591</ele>
        <time>2020-01-04T20:04:57Z</time>
      </trkpt>
      <trkpt lat="44.20439" lon="3.30667">
        <ele>602</ele>
        <time>2020-01-04T20:05:13Z</time>
      </trkpt>
      <trkpt lat="44.20433" lon="3.30676">
        <ele>606</ele>
        <time>2020-01-04T20:05:15Z</time>
      </trkpt>
      <trkpt lat="44.20429" lon="3.30688">
        <ele>607</ele>
        <time>2020-01-04T20:05:17Z</time>
      </trkpt>
      <trkpt lat="44.20426" lon="3.3071">
        <ele>606</ele>
        <time>2020-01-04T20:05:21Z</time>
      </trkpt>
      <trkpt lat="44.20431" lon="3.30731">
        <ele>598</ele>
        <time>2020-01-04T20:05:25Z</time>
      </trkpt>
      <trkpt lat="44.20426" lon="3.30764">
        <ele>597</ele>
        <time>2020-01-04T20:05:31Z</time>
      </trkpt>
      <trkpt lat="44.20422" lon="3.30774">
        <ele>598</ele>
        <time>2020-01-04T20:05:32Z</time>
      </trkpt>
      <trkpt lat="44.20424" lon="3.308">
        <ele>591</ele>
        <time>2020-01-04T20:05:37Z</time>
      </trkpt>
      <trkpt lat="44.20413" lon="3.30811">
        <ele>598</ele>
        <time>2020-01-04T20:05:40Z</time>
      </trkpt>
      <trkpt lat="44.20401" lon="3.30815">
        <ele>607</ele>
        <time>2020-01-04T20:05:43Z</time>
      </trkpt>
      <trkpt lat="44.20396" lon="3.30822">
        <ele>609</ele>
        <time>2020-01-04T20:05:45Z</time>
      </trkpt>
      <trkpt lat="44.2039" lon="3.30841">
        <ele>609</ele>
        <time>2020-01-04T20:05:48Z</time>
      </trkpt>
      <trkpt lat="44.20362" lon="3.30877">
        <ele>619</ele>
        <time>2020-01-04T20:05:57Z</time>
      </trkpt>
      <trkpt lat="44.20358" lon="3.30888">
        <ele>618</ele>
        <time>2020-01-04T20:05:59Z</time>
      </trkpt>
      <trkpt lat="44.20341" lon="3.30909">
        <ele>624</ele>
        <time>2020-01-04T20:06:04Z</time>
      </trkpt>
      <trkpt lat="44.20332" lon="3.30931">
        <ele>624</ele>
        <time>2020-01-04T20:06:09Z</time>
      </trkpt>
      <trkpt lat="44.20328" lon="3.30948">
        <ele>622</ele>
        <time>2020-01-04T20:06:12Z</time>
      </trkpt>
      <trkpt lat="44.20313" lon="3.30978">
        <ele>624</ele>
        <time>2020-01-04T20:06:18Z</time>
      </trkpt>
      <trkpt lat="44.203" lon="3.30995">
        <ele>627</ele>
        <time>2020-01-04T20:06:22Z</time>
      </trkpt>
      <trkpt lat="44.20287" lon="3.31002">
        <ele>634</ele>
        <time>2020-01-04T20:06:25Z</time>
      </trkpt>
      <trkpt lat="44.2028" lon="3.31028">
        <ele>632</ele>
        <time>2020-01-04T20:06:30Z</time>
      </trkpt>
      <trkpt lat="44.20274" lon="3.3104">
        <ele>634</ele>
        <time>2020-01-04T20:06:32Z</time>
      </trkpt>
      <trkpt lat="44.20272" lon="3.31058">
        <ele>631</ele>
        <time>2020-01-04T20:06:35Z</time>
      </trkpt>
      <trkpt lat="44.20265" lon="3.31075">
        <ele>632</ele>
        <time>2020-01-04T20:06:39Z</time>
      </trkpt>
      <trkpt lat="44.20268" lon="3.31085">
        <ele>627</ele>
        <time>2020-01-04T20:06:40Z</time>
      </trkpt>
      <trkpt lat="44.20253" lon="3.31109">
        <ele>632</ele>
        <time>2020-01-04T20:06:46Z</time>
      </trkpt>
      <trkpt lat="44.20235" lon="3.31131">
        <ele>640</ele>
        <time>2020-01-04T20:06:51Z</time>
      </trkpt>
      <trkpt lat="44.20231" lon="3.31146">
        <ele>639</ele>
        <time>2020-01-04T20:06:54Z</time>
      </trkpt>
      <trkpt lat="44.20227" lon="3.3115">
        <ele>641</ele>
        <time>2020-01-04T20:06:55Z</time>
      </trkpt>
      <trkpt lat="44.20216" lon="3.31141">
        <ele>651</ele>
        <time>2020-01-04T20:06:58Z</time>
      </trkpt>
      <trkpt lat="44.2021" lon="3.31139">
        <ele>657</ele>
        <time>2020-01-04T20:06:59Z</time>
      </trkpt>
      <trkpt lat="44.20208" lon="3.31128">
        <ele>661</ele>
        <time>2020-01-04T20:07:01Z</time>
      </trkpt>
      <trkpt lat="44.20212" lon="3.31126">
        <ele>659</ele>
        <time>2020-01-04T20:07:02Z</time>
      </trkpt>
      <trkpt lat="44.20203" lon="3.31115">
        <ele>669</ele>
        <time>2020-01-04T20:07:05Z</time>
      </trkpt>
      <trkpt lat="44.20205" lon="3.31107">
        <ele>670</ele>
        <time>2020-01-04T20:07:07Z</time>
      </trkpt>
      <trkpt lat="44.20216" lon="3.311">
        <ele>663</ele>
        <time>2020-01-04T20:07:09Z</time>
      </trkpt>
      <trkpt lat="44.20214" lon="3.31058">
        <ele>675</ele>
        <time>2020-01-04T20:07:16Z</time>
      </trkpt>
      <trkpt lat="44.2021" lon="3.3106">
        <ele>678</ele>
        <time>2020-01-04T20:07:17Z</time>
      </trkpt>
      <trkpt lat="44.20205" lon="3.31075">
        <ele>679</ele>
        <time>2020-01-04T20:07:20Z</time>
      </trkpt>
      <trkpt lat="44.20195" lon="3.31085">
        <ele>685</ele>
        <time>2020-01-04T20:07:23Z</time>
      </trkpt>
      <trkpt lat="44.20173" lon="3.311">
        <ele>697</ele>
        <time>2020-01-04T20:07:29Z</time>
      </trkpt>
      <trkpt lat="44.20169" lon="3.31109">
        <ele>698</ele>
        <time>2020-01-04T20:07:31Z</time>
      </trkpt>
      <trkpt lat="44.20171" lon="3.31126">
        <ele>690</ele>
        <time>2020-01-04T20:07:33Z</time>
      </trkpt>
      <trkpt lat="44.20188" lon="3.31148">
        <ele>670</ele>
        <time>2020-01-04T20:07:39Z</time>
      </trkpt>
      <trkpt lat="44.20195" lon="3.31165">
        <ele>660</ele>
        <time>2020-01-04T20:07:42Z</time>
      </trkpt>
      <trkpt lat="44.20192" lon="3.3118">
        <ele>656</ele>
        <time>2020-01-04T20:07:45Z</time>
      </trkpt>
      <trkpt lat="44.20184" lon="3.31186">
        <ele>659</ele>
        <time>2020-01-04T20:07:47Z</time>
      </trkpt>
      <trkpt lat="44.20173" lon="3.31186">
        <ele>667</ele>
        <time>2020-01-04T20:07:49Z</time>
      </trkpt>
      <trkpt lat="44.2016" lon="3.31195">
        <ele>672</ele>
        <time>2020-01-04T20:07:53Z</time>
      </trkpt>
      <trkpt lat="44.20128" lon="3.31206">
        <ele>689</ele>
        <time>2020-01-04T20:08:01Z</time>
      </trkpt>
      <trkpt lat="44.20117" lon="3.31203">
        <ele>698</ele>
        <time>2020-01-04T20:08:03Z</time>
      </trkpt>
      <trkpt lat="44.20109" lon="3.31197">
        <ele>707</ele>
        <time>2020-01-04T20:08:05Z</time>
      </trkpt>
      <trkpt lat="44.20098" lon="3.31199">
        <ele>713</ele>
        <time>2020-01-04T20:08:08Z</time>
      </trkpt>
      <trkpt lat="44.20055" lon="3.31249">
        <ele>723</ele>
        <time>2020-01-04T20:08:21Z</time>
      </trkpt>
      <trkpt lat="44.20029" lon="3.31268">
        <ele>734</ele>
        <time>2020-01-04T20:08:28Z</time>
      </trkpt>
      <trkpt lat="44.20019" lon="3.31294">
        <ele>726</ele>
        <time>2020-01-04T20:08:33Z</time>
      </trkpt>
      <trkpt lat="44.2001" lon="3.313">
        <ele>730</ele>
        <time>2020-01-04T20:08:35Z</time>
      </trkpt>
      <trkpt lat="44.19999" lon="3.31315">
        <ele>730</ele>
        <time>2020-01-04T20:08:39Z</time>
      </trkpt>
      <trkpt lat="44.20002" lon="3.3133">
        <ele>717</ele>
        <time>2020-01-04T20:08:41Z</time>
      </trkpt>
      <trkpt lat="44.19991" lon="3.31347">
        <ele>718</ele>
        <time>2020-01-04T20:08:45Z</time>
      </trkpt>
      <trkpt lat="44.19978" lon="3.31358">
        <ele>724</ele>
        <time>2020-01-04T20:08:49Z</time>
      </trkpt>
      <trkpt lat="44.19961" lon="3.31403">
        <ele>714</ele>
        <time>2020-01-04T20:08:57Z</time>
      </trkpt>
      <trkpt lat="44.19952" lon="3.31409">
        <ele>719</ele>
        <time>2020-01-04T20:09:00Z</time>
      </trkpt>
      <trkpt lat="44.19944" lon="3.31431">
        <ele>712</ele>
        <time>2020-01-04T20:09:04Z</time>
      </trkpt>
      <trkpt lat="44.19933" lon="3.31446">
        <ele>710</ele>
        <time>2020-01-04T20:09:07Z</time>
      </trkpt>
      <trkpt lat="44.19914" lon="3.3145">
        <ele>719</ele>
        <time>2020-01-04T20:09:12Z</time>
      </trkpt>
      <trkpt lat="44.19899" lon="3.3145">
        <ele>725</ele>
        <time>2020-01-04T20:09:15Z</time>
      </trkpt>
      <trkpt lat="44.19873" lon="3.31472">
        <ele>718</ele>
        <time>2020-01-04T20:09:22Z</time>
      </trkpt>
      <trkpt lat="44.19841" lon="3.31461">
        <ele>737</ele>
        <time>2020-01-04T20:09:30Z</time>
      </trkpt>
      <trkpt lat="44.19828" lon="3.31467">
        <ele>738</ele>
        <time>2020-01-04T20:09:33Z</time>
      </trkpt>
      <trkpt lat="44.19789" lon="3.31497">
        <ele>731</ele>
        <time>2020-01-04T20:09:44Z</time>
      </trkpt>
      <trkpt lat="44.19778" lon="3.315">
        <ele>734</ele>
        <time>2020-01-04T20:09:46Z</time>
      </trkpt>
      <trkpt lat="44.19753" lon="3.315">
        <ele>744</ele>
        <time>2020-01-04T20:09:52Z</time>
      </trkpt>
      <trkpt lat="44.19742" lon="3.31506">
        <ele>747</ele>
        <time>2020-01-04T20:09:55Z</time>
      </trkpt>
      <trkpt lat="44.19733" lon="3.31519">
        <ele>746</ele>
        <time>2020-01-04T20:09:58Z</time>
      </trkpt>
      <trkpt lat="44.19716" lon="3.31575">
        <ele>735</ele>
        <time>2020-01-04T20:10:08Z</time>
      </trkpt>
      <trkpt lat="44.19705" lon="3.31594">
        <ele>737</ele>
        <time>2020-01-04T20:10:12Z</time>
      </trkpt>
      <trkpt lat="44.19682" lon="3.3162">
        <ele>744</ele>
        <time>2020-01-04T20:10:19Z</time>
      </trkpt>
      <trkpt lat="44.19658" lon="3.31637">
        <ele>749</ele>
        <time>2020-01-04T20:10:25Z</time>
      </trkpt>
      <trkpt lat="44.19577" lon="3.31673">
        <ele>761</ele>
        <time>2020-01-04T20:10:45Z</time>
      </trkpt>
      <trkpt lat="44.19529" lon="3.31706">
        <ele>771</ele>
        <time>2020-01-04T20:10:58Z</time>
      </trkpt>
      <trkpt lat="44.19514" lon="3.31721">
        <ele>771</ele>
        <time>2020-01-04T20:11:02Z</time>
      </trkpt>
      <trkpt lat="44.19499" lon="3.31727">
        <ele>773</ele>
        <time>2020-01-04T20:11:06Z</time>
      </trkpt>
      <trkpt lat="44.19484" lon="3.31744">
        <ele>773</ele>
        <time>2020-01-04T20:11:10Z</time>
      </trkpt>
      <trkpt lat="44.19472" lon="3.31766">
        <ele>776</ele>
        <time>2020-01-04T20:11:15Z</time>
      </trkpt>
      <trkpt lat="44.19441" lon="3.3177">
        <ele>782</ele>
        <time>2020-01-04T20:11:22Z</time>
      </trkpt>
      <trkpt lat="44.1939" lon="3.31789">
        <ele>791</ele>
        <time>2020-01-04T20:11:34Z</time>
      </trkpt>
      <trkpt lat="44.19349" lon="3.31781">
        <ele>799</ele>
        <time>2020-01-04T20:11:44Z</time>
      </trkpt>
      <trkpt lat="44.1933" lon="3.31781">
        <ele>803</ele>
        <time>2020-01-04T20:11:48Z</time>
      </trkpt>
      <trkpt lat="44.19328" lon="3.31774">
        <ele>804</ele>
        <time>2020-01-04T20:11:50Z</time>
      </trkpt>
      <trkpt lat="44.19332" lon="3.3177">
        <ele>804</ele>
        <time>2020-01-04T20:11:51Z</time>
      </trkpt>
      <trkpt lat="44.19386" lon="3.31733">
        <ele>801</ele>
        <time>2020-01-04T20:12:05Z</time>
      </trkpt>
      <trkpt lat="44.19388" lon="3.31727">
        <ele>803</ele>
        <time>2020-01-04T20:12:06Z</time>
      </trkpt>
      <trkpt lat="44.19384" lon="3.31723">
        <ele>806</ele>
        <time>2020-01-04T20:12:07Z</time>
      </trkpt>
      <trkpt lat="44.19362" lon="3.31733">
        <ele>807</ele>
        <time>2020-01-04T20:12:13Z</time>
      </trkpt>
      <trkpt lat="44.19326" lon="3.31742">
        <ele>810</ele>
        <time>2020-01-04T20:12:21Z</time>
      </trkpt>
      <trkpt lat="44.19289" lon="3.31731">
        <ele>818</ele>
        <time>2020-01-04T20:12:30Z</time>
      </trkpt>
      <trkpt lat="44.19244" lon="3.31727">
        <ele>825</ele>
        <time>2020-01-04T20:12:41Z</time>
      </trkpt>
      <trkpt lat="44.19229" lon="3.31723">
        <ele>830</ele>
        <time>2020-01-04T20:12:44Z</time>
      </trkpt>
      <trkpt lat="44.19165" lon="3.31733">
        <ele>838</ele>
        <time>2020-01-04T20:12:59Z</time>
      </trkpt>
      <trkpt lat="44.1915" lon="3.31731">
        <ele>841</ele>
        <time>2020-01-04T20:13:03Z</time>
      </trkpt>
      <trkpt lat="44.19117" lon="3.31759">
        <ele>840</ele>
        <time>2020-01-04T20:13:12Z</time>
      </trkpt>
      <trkpt lat="44.19102" lon="3.31766">
        <ele>842</ele>
        <time>2020-01-04T20:13:15Z</time>
      </trkpt>
      <trkpt lat="44.19077" lon="3.3177">
        <ele>846</ele>
        <time>2020-01-04T20:13:21Z</time>
      </trkpt>
      <trkpt lat="44.19032" lon="3.31785">
        <ele>853</ele>
        <time>2020-01-04T20:13:32Z</time>
      </trkpt>
      <trkpt lat="44.19019" lon="3.31798">
        <ele>854</ele>
        <time>2020-01-04T20:13:36Z</time>
      </trkpt>
      <trkpt lat="44.19008" lon="3.31798">
        <ele>857</ele>
        <time>2020-01-04T20:13:38Z</time>
      </trkpt>
      <trkpt lat="44.1898" lon="3.31811">
        <ele>862</ele>
        <time>2020-01-04T20:13:45Z</time>
      </trkpt>
      <trkpt lat="44.18954" lon="3.31862">
        <ele>863</ele>
        <time>2020-01-04T20:13:56Z</time>
      </trkpt>
      <trkpt lat="44.18937" lon="3.31877">
        <ele>865</ele>
        <time>2020-01-04T20:14:00Z</time>
      </trkpt>
      <trkpt lat="44.18911" lon="3.31909">
        <ele>868</ele>
        <time>2020-01-04T20:14:09Z</time>
      </trkpt>
      <trkpt lat="44.18869" lon="3.31939">
        <ele>867</ele>
        <time>2020-01-04T20:14:20Z</time>
      </trkpt>
      <trkpt lat="44.18804" lon="3.31952">
        <ele>870</ele>
        <time>2020-01-04T20:14:35Z</time>
      </trkpt>
      <trkpt lat="44.18774" lon="3.31963">
        <ele>870</ele>
        <time>2020-01-04T20:14:42Z</time>
      </trkpt>
      <trkpt lat="44.18757" lon="3.31985">
        <ele>870</ele>
        <time>2020-01-04T20:14:48Z</time>
      </trkpt>
      <trkpt lat="44.18733" lon="3.32135">
        <ele>872</ele>
        <time>2020-01-04T20:15:13Z</time>
      </trkpt>
      <trkpt lat="44.18727" lon="3.32156">
        <ele>873</ele>
        <time>2020-01-04T20:15:17Z</time>
      </trkpt>
      <trkpt lat="44.18712" lon="3.32169">
        <ele>874</ele>
        <time>2020-01-04T20:15:21Z</time>
      </trkpt>
      <trkpt lat="44.18699" lon="3.32208">
        <ele>873</ele>
        <time>2020-01-04T20:15:28Z</time>
      </trkpt>
      <trkpt lat="44.1865" lon="3.32431">
        <ele>873</ele>
        <time>2020-01-04T20:16:07Z</time>
      </trkpt>
      <trkpt lat="44.18648" lon="3.32452">
        <ele>873</ele>
        <time>2020-01-04T20:16:11Z</time>
      </trkpt>
      <trkpt lat="44.1865" lon="3.32472">
        <ele>872</ele>
        <time>2020-01-04T20:16:14Z</time>
      </trkpt>
      <trkpt lat="44.18665" lon="3.32547">
        <ele>868</ele>
        <time>2020-01-04T20:16:27Z</time>
      </trkpt>
      <trkpt lat="44.18699" lon="3.32699">
        <ele>869</ele>
        <time>2020-01-04T20:16:54Z</time>
      </trkpt>
      <trkpt lat="44.18701" lon="3.32718">
        <ele>869</ele>
        <time>2020-01-04T20:16:57Z</time>
      </trkpt>
      <trkpt lat="44.18695" lon="3.32774">
        <ele>871</ele>
        <time>2020-01-04T20:17:07Z</time>
      </trkpt>
      <trkpt lat="44.18701" lon="3.32811">
        <ele>872</ele>
        <time>2020-01-04T20:17:13Z</time>
      </trkpt>
      <trkpt lat="44.1871" lon="3.32841">
        <ele>872</ele>
        <time>2020-01-04T20:17:19Z</time>
      </trkpt>
      <trkpt lat="44.1872" lon="3.3286">
        <ele>872</ele>
        <time>2020-01-04T20:17:23Z</time>
      </trkpt>
      <trkpt lat="44.18742" lon="3.32886">
        <ele>869</ele>
        <time>2020-01-04T20:17:29Z</time>
      </trkpt>
      <trkpt lat="44.18757" lon="3.32911">
        <ele>869</ele>
        <time>2020-01-04T20:17:35Z</time>
      </trkpt>
      <trkpt lat="44.18763" lon="3.33006">
        <ele>871</ele>
        <time>2020-01-04T20:17:51Z</time>
      </trkpt>
      <trkpt lat="44.18776" lon="3.3298">
        <ele>872</ele>
        <time>2020-01-04T20:17:56Z</time>
      </trkpt>
      <trkpt lat="44.18815" lon="3.32939">
        <ele>874</ele>
        <time>2020-01-04T20:18:07Z</time>
      </trkpt>
      <trkpt lat="44.18841" lon="3.32888">
        <ele>876</ele>
        <time>2020-01-04T20:18:18Z</time>
      </trkpt>
      <trkpt lat="44.18841" lon="3.32881">
        <ele>876</ele>
        <time>2020-01-04T20:18:19Z</time>
      </trkpt>
      <trkpt lat="44.18843" lon="3.32881">
        <ele>877</ele>
        <time>2020-01-04T20:18:19Z</time>
      </trkpt>
      <trkpt lat="44.18841" lon="3.32888">
        <ele>876</ele>
        <time>2020-01-04T20:18:21Z</time>
      </trkpt>
      <trkpt lat="44.18847" lon="3.32903">
        <ele>877</ele>
        <time>2020-01-04T20:18:24Z</time>
      </trkpt>
      <trkpt lat="44.1886" lon="3.32995">
        <ele>880</ele>
        <time>2020-01-04T20:18:39Z</time>
      </trkpt>
      <trkpt lat="44.18859" lon="3.33033">
        <ele>880</ele>
        <time>2020-01-04T20:18:46Z</time>
      </trkpt>
      <trkpt lat="44.18867" lon="3.33141">
        <ele>884</ele>
        <time>2020-01-04T20:19:04Z</time>
      </trkpt>
      <trkpt lat="44.18895" lon="3.33252">
        <ele>893</ele>
        <time>2020-01-04T20:19:24Z</time>
      </trkpt>
      <trkpt lat="44.18891" lon="3.33351">
        <ele>894</ele>
        <time>2020-01-04T20:19:40Z</time>
      </trkpt>
      <trkpt lat="44.18896" lon="3.33384">
        <ele>895</ele>
        <time>2020-01-04T20:19:46Z</time>
      </trkpt>
      <trkpt lat="44.18915" lon="3.3344">
        <ele>897</ele>
        <time>2020-01-04T20:19:56Z</time>
      </trkpt>
      <trkpt lat="44.18913" lon="3.33466">
        <ele>897</ele>
        <time>2020-01-04T20:20:01Z</time>
      </trkpt>
      <trkpt lat="44.18887" lon="3.33534">
        <ele>895</ele>
        <time>2020-01-04T20:20:13Z</time>
      </trkpt>
      <trkpt lat="44.1888" lon="3.33533">
        <ele>895</ele>
        <time>2020-01-04T20:20:15Z</time>
      </trkpt>
      <trkpt lat="44.18859" lon="3.33556">
        <ele>892</ele>
        <time>2020-01-04T20:20:21Z</time>
      </trkpt>
      <trkpt lat="44.18856" lon="3.3363">
        <ele>892</ele>
        <time>2020-01-04T20:20:34Z</time>
      </trkpt>
      <trkpt lat="44.18882" lon="3.33773">
        <ele>897</ele>
        <time>2020-01-04T20:20:58Z</time>
      </trkpt>
      <trkpt lat="44.18901" lon="3.33836">
        <ele>896</ele>
        <time>2020-01-04T20:21:10Z</time>
      </trkpt>
      <trkpt lat="44.1891" lon="3.33898">
        <ele>897</ele>
        <time>2020-01-04T20:21:21Z</time>
      </trkpt>
      <trkpt lat="44.18923" lon="3.33954">
        <ele>897</ele>
        <time>2020-01-04T20:21:30Z</time>
      </trkpt>
      <trkpt lat="44.1897" lon="3.34082">
        <ele>902</ele>
        <time>2020-01-04T20:21:54Z</time>
      </trkpt>
      <trkpt lat="44.18976" lon="3.34119">
        <ele>903</ele>
        <time>2020-01-04T20:22:01Z</time>
      </trkpt>
      <trkpt lat="44.18968" lon="3.34133">
        <ele>902</ele>
        <time>2020-01-04T20:22:04Z</time>
      </trkpt>
      <trkpt lat="44.18953" lon="3.34184">
        <ele>900</ele>
        <time>2020-01-04T20:22:13Z</time>
      </trkpt>
      <trkpt lat="44.18983" lon="3.34234">
        <ele>901</ele>
        <time>2020-01-04T20:22:24Z</time>
      </trkpt>
      <trkpt lat="44.18989" lon="3.34235">
        <ele>901</ele>
        <time>2020-01-04T20:22:25Z</time>
      </trkpt>
      <trkpt lat="44.18987" lon="3.34231">
        <ele>901</ele>
        <time>2020-01-04T20:22:26Z</time>
      </trkpt>
      <trkpt lat="44.18991" lon="3.3424">
        <ele>901</ele>
        <time>2020-01-04T20:22:28Z</time>
      </trkpt>
      <trkpt lat="44.18989" lon="3.34236">
        <ele>901</ele>
        <time>2020-01-04T20:22:29Z</time>
      </trkpt>
      <trkpt lat="44.18992" lon="3.34236">
        <ele>902</ele>
        <time>2020-01-04T20:22:29Z</time>
      </trkpt>
      <trkpt lat="44.18987" lon="3.34236">
        <ele>901</ele>
        <time>2020-01-04T20:22:31Z</time>
      </trkpt>
      <trkpt lat="44.18992" lon="3.34237">
        <ele>902</ele>
        <time>2020-01-04T20:22:32Z</time>
      </trkpt>
      <trkpt lat="44.18989" lon="3.34237">
        <ele>901</ele>
        <time>2020-01-04T20:22:33Z</time>
      </trkpt>
      <trkpt lat="44.18991" lon="3.34239">
        <ele>901</ele>
        <time>2020-01-04T20:22:33Z</time>
      </trkpt>
      <trkpt lat="44.18989" lon="3.34235">
        <ele>901</ele>
        <time>2020-01-04T20:22:34Z</time>
      </trkpt>
      <trkpt lat="44.18996" lon="3.34245">
        <ele>902</ele>
        <time>2020-01-04T20:22:36Z</time>
      </trkpt>
      <trkpt lat="44.1902" lon="3.34218">
        <ele>905</ele>
        <time>2020-01-04T20:22:43Z</time>
      </trkpt>
      <trkpt lat="44.19051" lon="3.34236">
        <ele>906</ele>
        <time>2020-01-04T20:22:51Z</time>
      </trkpt>
      <trkpt lat="44.19131" lon="3.34246">
        <ele>915</ele>
        <time>2020-01-04T20:23:10Z</time>
      </trkpt>
      <trkpt lat="44.19158" lon="3.34261">
        <ele>918</ele>
        <time>2020-01-04T20:23:17Z</time>
      </trkpt>
      <trkpt lat="44.19179" lon="3.34287">
        <ele>919</ele>
        <time>2020-01-04T20:23:23Z</time>
      </trkpt>
      <trkpt lat="44.19242" lon="3.34399">
        <ele>926</ele>
        <time>2020-01-04T20:23:47Z</time>
      </trkpt>
      <trkpt lat="44.19295" lon="3.34464">
        <ele>928</ele>
        <time>2020-01-04T20:24:04Z</time>
      </trkpt>
      <trkpt lat="44.1931" lon="3.34495">
        <ele>927</ele>
        <time>2020-01-04T20:24:10Z</time>
      </trkpt>
      <trkpt lat="44.1934" lon="3.34532">
        <ele>927</ele>
        <time>2020-01-04T20:24:19Z</time>
      </trkpt>
      <trkpt lat="44.19358" lon="3.34576">
        <ele>924</ele>
        <time>2020-01-04T20:24:28Z</time>
      </trkpt>
      <trkpt lat="44.19395" lon="3.34767">
        <ele>916</ele>
        <time>2020-01-04T20:25:01Z</time>
      </trkpt>
      <trkpt lat="44.19432" lon="3.34886">
        <ele>910</ele>
        <time>2020-01-04T20:25:23Z</time>
      </trkpt>
      <trkpt lat="44.19459" lon="3.3495">
        <ele>905</ele>
        <time>2020-01-04T20:25:35Z</time>
      </trkpt>
      <trkpt lat="44.19478" lon="3.34979">
        <ele>900</ele>
        <time>2020-01-04T20:25:42Z</time>
      </trkpt>
      <trkpt lat="44.19482" lon="3.34995">
        <ele>897</ele>
        <time>2020-01-04T20:25:45Z</time>
      </trkpt>
      <trkpt lat="44.19479" lon="3.35015">
        <ele>897</ele>
        <time>2020-01-04T20:25:48Z</time>
      </trkpt>
      <trkpt lat="44.19483" lon="3.35036">
        <ele>896</ele>
        <time>2020-01-04T20:25:52Z</time>
      </trkpt>
      <trkpt lat="44.19519" lon="3.3514">
        <ele>889</ele>
        <time>2020-01-04T20:26:11Z</time>
      </trkpt>
      <trkpt lat="44.19525" lon="3.35135">
        <ele>885</ele>
        <time>2020-01-04T20:26:13Z</time>
      </trkpt>
      <trkpt lat="44.19536" lon="3.35143">
        <ele>882</ele>
        <time>2020-01-04T20:26:15Z</time>
      </trkpt>
      <trkpt lat="44.19557" lon="3.35137">
        <ele>872</ele>
        <time>2020-01-04T20:26:20Z</time>
      </trkpt>
      <trkpt lat="44.1956" lon="3.35131">
        <ele>869</ele>
        <time>2020-01-04T20:26:22Z</time>
      </trkpt>
      <trkpt lat="44.19574" lon="3.35135">
        <ele>864</ele>
        <time>2020-01-04T20:26:25Z</time>
      </trkpt>
      <trkpt lat="44.1957" lon="3.35121">
        <ele>863</ele>
        <time>2020-01-04T20:26:28Z</time>
      </trkpt>
      <trkpt lat="44.1961" lon="3.35129">
        <ele>847</ele>
        <time>2020-01-04T20:26:37Z</time>
      </trkpt>
      <trkpt lat="44.19646" lon="3.35125">
        <ele>830</ele>
        <time>2020-01-04T20:26:45Z</time>
      </trkpt>
      <trkpt lat="44.19634" lon="3.35105">
        <ele>832</ele>
        <time>2020-01-04T20:26:50Z</time>
      </trkpt>
      <trkpt lat="44.19637" lon="3.35103">
        <ele>830</ele>
        <time>2020-01-04T20:26:51Z</time>
      </trkpt>
      <trkpt lat="44.19628" lon="3.35077">
        <ele>831</ele>
        <time>2020-01-04T20:26:55Z</time>
      </trkpt>
      <trkpt lat="44.1967" lon="3.35105">
        <ele>815</ele>
        <time>2020-01-04T20:27:06Z</time>
      </trkpt>
      <trkpt lat="44.19693" lon="3.35134">
        <ele>809</ele>
        <time>2020-01-04T20:27:13Z</time>
      </trkpt>
      <trkpt lat="44.19692" lon="3.35092">
        <ele>802</ele>
        <time>2020-01-04T20:27:21Z</time>
      </trkpt>
      <trkpt lat="44.1971" lon="3.35104">
        <ele>795</ele>
        <time>2020-01-04T20:27:25Z</time>
      </trkpt>
      <trkpt lat="44.19709" lon="3.35094">
        <ele>794</ele>
        <time>2020-01-04T20:27:27Z</time>
      </trkpt>
      <trkpt lat="44.19744" lon="3.35134">
        <ele>781</ele>
        <time>2020-01-04T20:27:37Z</time>
      </trkpt>
      <trkpt lat="44.19752" lon="3.35135">
        <ele>777</ele>
        <time>2020-01-04T20:27:39Z</time>
      </trkpt>
      <trkpt lat="44.19779" lon="3.35161">
        <ele>767</ele>
        <time>2020-01-04T20:27:47Z</time>
      </trkpt>
      <trkpt lat="44.19778" lon="3.3512">
        <ele>764</ele>
        <time>2020-01-04T20:27:54Z</time>
      </trkpt>
      <trkpt lat="44.19836" lon="3.35196">
        <ele>745</ele>
        <time>2020-01-04T20:28:12Z</time>
      </trkpt>
      <trkpt lat="44.19854" lon="3.35204">
        <ele>737</ele>
        <time>2020-01-04T20:28:17Z</time>
      </trkpt>
      <trkpt lat="44.19851" lon="3.3519">
        <ele>736</ele>
        <time>2020-01-04T20:28:19Z</time>
      </trkpt>
      <trkpt lat="44.19894" lon="3.35228">
        <ele>719</ele>
        <time>2020-01-04T20:28:31Z</time>
      </trkpt>
      <trkpt lat="44.19916" lon="3.35275">
        <ele>711</ele>
        <time>2020-01-04T20:28:41Z</time>
      </trkpt>
      <trkpt lat="44.19921" lon="3.35296">
        <ele>710</ele>
        <time>2020-01-04T20:28:44Z</time>
      </trkpt>
      <trkpt lat="44.19917" lon="3.35335">
        <ele>716</ele>
        <time>2020-01-04T20:28:51Z</time>
      </trkpt>
      <trkpt lat="44.19927" lon="3.35349">
        <ele>713</ele>
        <time>2020-01-04T20:28:54Z</time>
      </trkpt>
      <trkpt lat="44.19964" lon="3.35369">
        <ele>697</ele>
        <time>2020-01-04T20:29:03Z</time>
      </trkpt>
      <trkpt lat="44.19977" lon="3.35385">
        <ele>693</ele>
        <time>2020-01-04T20:29:08Z</time>
      </trkpt>
      <trkpt lat="44.19981" lon="3.35381">
        <ele>690</ele>
        <time>2020-01-04T20:29:09Z</time>
      </trkpt>
      <trkpt lat="44.19978" lon="3.35365">
        <ele>689</ele>
        <time>2020-01-04T20:29:11Z</time>
      </trkpt>
      <trkpt lat="44.19955" lon="3.35338">
        <ele>697</ele>
        <time>2020-01-04T20:29:18Z</time>
      </trkpt>
      <trkpt lat="44.19967" lon="3.35334">
        <ele>690</ele>
        <time>2020-01-04T20:29:21Z</time>
      </trkpt>
      <trkpt lat="44.19987" lon="3.35339">
        <ele>680</ele>
        <time>2020-01-04T20:29:26Z</time>
      </trkpt>
      <trkpt lat="44.20011" lon="3.35356">
        <ele>671</ele>
        <time>2020-01-04T20:29:32Z</time>
      </trkpt>
      <trkpt lat="44.20027" lon="3.35379">
        <ele>666</ele>
        <time>2020-01-04T20:29:38Z</time>
      </trkpt>
      <trkpt lat="44.20034" lon="3.35382">
        <ele>663</ele>
        <time>2020-01-04T20:29:39Z</time>
      </trkpt>
      <trkpt lat="44.20037" lon="3.35338">
        <ele>657</ele>
        <time>2020-01-04T20:29:47Z</time>
      </trkpt>
      <trkpt lat="44.20048" lon="3.35347">
        <ele>653</ele>
        <time>2020-01-04T20:29:50Z</time>
      </trkpt>
      <trkpt lat="44.20066" lon="3.35389">
        <ele>647</ele>
        <time>2020-01-04T20:29:58Z</time>
      </trkpt>
      <trkpt lat="44.20071" lon="3.35387">
        <ele>644</ele>
        <time>2020-01-04T20:29:59Z</time>
      </trkpt>
      <trkpt lat="44.20078" lon="3.35368">
        <ele>640</ele>
        <time>2020-01-04T20:30:03Z</time>
      </trkpt>
      <trkpt lat="44.20089" lon="3.35394">
        <ele>636</ele>
        <time>2020-01-04T20:30:08Z</time>
      </trkpt>
      <trkpt lat="44.2009" lon="3.35411">
        <ele>636</ele>
        <time>2020-01-04T20:30:11Z</time>
      </trkpt>
      <trkpt lat="44.201" lon="3.3544">
        <ele>631</ele>
        <time>2020-01-04T20:30:16Z</time>
      </trkpt>
      <trkpt lat="44.20113" lon="3.3544">
        <ele>626</ele>
        <time>2020-01-04T20:30:19Z</time>
      </trkpt>
      <trkpt lat="44.20126" lon="3.35464">
        <ele>621</ele>
        <time>2020-01-04T20:30:24Z</time>
      </trkpt>
      <trkpt lat="44.20102" lon="3.35492">
        <ele>626</ele>
        <time>2020-01-04T20:30:31Z</time>
      </trkpt>
      <trkpt lat="44.20061" lon="3.35593">
        <ele>638</ele>
        <time>2020-01-04T20:30:51Z</time>
      </trkpt>
      <trkpt lat="44.20052" lon="3.35707">
        <ele>644</ele>
        <time>2020-01-04T20:31:10Z</time>
      </trkpt>
      <trkpt lat="44.20058" lon="3.35849">
        <ele>646</ele>
        <time>2020-01-04T20:31:34Z</time>
      </trkpt>
      <trkpt lat="44.20052" lon="3.35897">
        <ele>654</ele>
        <time>2020-01-04T20:31:42Z</time>
      </trkpt>
      <trkpt lat="44.20058" lon="3.35908">
        <ele>651</ele>
        <time>2020-01-04T20:31:44Z</time>
      </trkpt>
      <trkpt lat="44.20074" lon="3.36023">
        <ele>653</ele>
        <time>2020-01-04T20:32:04Z</time>
      </trkpt>
      <trkpt lat="44.20067" lon="3.36114">
        <ele>665</ele>
        <time>2020-01-04T20:32:19Z</time>
      </trkpt>
      <trkpt lat="44.2008" lon="3.36208">
        <ele>663</ele>
        <time>2020-01-04T20:32:35Z</time>
      </trkpt>
      <trkpt lat="44.2008" lon="3.36237">
        <ele>664</ele>
        <time>2020-01-04T20:32:40Z</time>
      </trkpt>
      <trkpt lat="44.20075" lon="3.36252">
        <ele>667</ele>
        <time>2020-01-04T20:32:43Z</time>
      </trkpt>
      <trkpt lat="44.20076" lon="3.36461">
        <ele>671</ele>
        <time>2020-01-04T20:33:18Z</time>
      </trkpt>
      <trkpt lat="44.20069" lon="3.36555">
        <ele>674</ele>
        <time>2020-01-04T20:33:34Z</time>
      </trkpt>
      <trkpt lat="44.20057" lon="3.36613">
        <ele>677</ele>
        <time>2020-01-04T20:33:44Z</time>
      </trkpt>
      <trkpt lat="44.20063" lon="3.36618">
        <ele>672</ele>
        <time>2020-01-04T20:33:46Z</time>
      </trkpt>
      <trkpt lat="44.20053" lon="3.36618">
        <ele>678</ele>
        <time>2020-01-04T20:33:48Z</time>
      </trkpt>
      <trkpt lat="44.20059" lon="3.36644">
        <ele>672</ele>
        <time>2020-01-04T20:33:52Z</time>
      </trkpt>
      <trkpt lat="44.20066" lon="3.3665">
        <ele>667</ele>
        <time>2020-01-04T20:33:54Z</time>
      </trkpt>
      <trkpt lat="44.20058" lon="3.36684">
        <ele>669</ele>
        <time>2020-01-04T20:34:00Z</time>
      </trkpt>
      <trkpt lat="44.2004" lon="3.36715">
        <ele>677</ele>
        <time>2020-01-04T20:34:07Z</time>
      </trkpt>
      <trkpt lat="44.20024" lon="3.36779">
        <ele>681</ele>
        <time>2020-01-04T20:34:18Z</time>
      </trkpt>
      <trkpt lat="44.20007" lon="3.36818">
        <ele>686</ele>
        <time>2020-01-04T20:34:26Z</time>
      </trkpt>
      <trkpt lat="44.19983" lon="3.36846">
        <ele>697</ele>
        <time>2020-01-04T20:34:33Z</time>
      </trkpt>
      <trkpt lat="44.19982" lon="3.36866">
        <ele>696</ele>
        <time>2020-01-04T20:34:37Z</time>
      </trkpt>
      <trkpt lat="44.19964" lon="3.36924">
        <ele>701</ele>
        <time>2020-01-04T20:34:47Z</time>
      </trkpt>
      <trkpt lat="44.19962" lon="3.36944">
        <ele>699</ele>
        <time>2020-01-04T20:34:51Z</time>
      </trkpt>
      <trkpt lat="44.19945" lon="3.36997">
        <ele>703</ele>
        <time>2020-01-04T20:35:00Z</time>
      </trkpt>
      <trkpt lat="44.19913" lon="3.37055">
        <ele>713</ele>
        <time>2020-01-04T20:35:13Z</time>
      </trkpt>
      <trkpt lat="44.19853" lon="3.37133">
        <ele>733</ele>
        <time>2020-01-04T20:35:32Z</time>
      </trkpt>
      <trkpt lat="44.19849" lon="3.37159">
        <ele>730</ele>
        <time>2020-01-04T20:35:36Z</time>
      </trkpt>
      <trkpt lat="44.1982" lon="3.37247">
        <ele>746</ele>
        <time>2020-01-04T20:35:52Z</time>
      </trkpt>
      <trkpt lat="44.19809" lon="3.37303">
        <ele>752</ele>
        <time>2020-01-04T20:36:02Z</time>
      </trkpt>
      <trkpt lat="44.19776" lon="3.37371">
        <ele>768</ele>
        <time>2020-01-04T20:36:16Z</time>
      </trkpt>
      <trkpt lat="44.19753" lon="3.37387">
        <ele>783</ele>
        <time>2020-01-04T20:36:22Z</time>
      </trkpt>
      <trkpt lat="44.1973" lon="3.37419">
        <ele>798</ele>
        <time>2020-01-04T20:36:29Z</time>
      </trkpt>
      <trkpt lat="44.19726" lon="3.37455">
        <ele>803</ele>
        <time>2020-01-04T20:36:36Z</time>
      </trkpt>
      <trkpt lat="44.19728" lon="3.37473">
        <ele>802</ele>
        <time>2020-01-04T20:36:39Z</time>
      </trkpt>
      <trkpt lat="44.19727" lon="3.37468">
        <ele>803</ele>
        <time>2020-01-04T20:36:40Z</time>
      </trkpt>
      <trkpt lat="44.1973" lon="3.37473">
        <ele>801</ele>
        <time>2020-01-04T20:36:41Z</time>
      </trkpt>
      <trkpt lat="44.19729" lon="3.37508">
        <ele>803</ele>
        <time>2020-01-04T20:36:46Z</time>
      </trkpt>
      <trkpt lat="44.19722" lon="3.37547">
        <ele>812</ele>
        <time>2020-01-04T20:36:53Z</time>
      </trkpt>
      <trkpt lat="44.19721" lon="3.37588">
        <ele>815</ele>
        <time>2020-01-04T20:37:00Z</time>
      </trkpt>
      <trkpt lat="44.19714" lon="3.37637">
        <ele>818</ele>
        <time>2020-01-04T20:37:08Z</time>
      </trkpt>
      <trkpt lat="44.19717" lon="3.37656">
        <ele>813</ele>
        <time>2020-01-04T20:37:12Z</time>
      </trkpt>
      <trkpt lat="44.19715" lon="3.37709">
        <ele>816</ele>
        <time>2020-01-04T20:37:21Z</time>
      </trkpt>
      <trkpt lat="44.19708" lon="3.37712">
        <ele>822</ele>
        <time>2020-01-04T20:37:22Z</time>
      </trkpt>
      <trkpt lat="44.19703" lon="3.37681">
        <ele>826</ele>
        <time>2020-01-04T20:37:28Z</time>
      </trkpt>
      <trkpt lat="44.19688" lon="3.37733">
        <ele>840</ele>
        <time>2020-01-04T20:37:37Z</time>
      </trkpt>
      <trkpt lat="44.19683" lon="3.37731">
        <ele>845</ele>
        <time>2020-01-04T20:37:38Z</time>
      </trkpt>
      <trkpt lat="44.19673" lon="3.37714">
        <ele>853</ele>
        <time>2020-01-04T20:37:42Z</time>
      </trkpt>
      <trkpt lat="44.19674" lon="3.37701">
        <ele>852</ele>
        <time>2020-01-04T20:37:44Z</time>
      </trkpt>
      <trkpt lat="44.1967" lon="3.37699">
        <ele>856</ele>
        <time>2020-01-04T20:37:45Z</time>
      </trkpt>
      <trkpt lat="44.19661" lon="3.37726">
        <ele>861</ele>
        <time>2020-01-04T20:37:50Z</time>
      </trkpt>
      <trkpt lat="44.19663" lon="3.37704">
        <ele>861</ele>
        <time>2020-01-04T20:37:54Z</time>
      </trkpt>
      <trkpt lat="44.1966" lon="3.37703">
        <ele>862</ele>
        <time>2020-01-04T20:37:54Z</time>
      </trkpt>
      <trkpt lat="44.19663" lon="3.37704">
        <ele>861</ele>
        <time>2020-01-04T20:37:55Z</time>
      </trkpt>
      <trkpt lat="44.19662" lon="3.37698">
        <ele>861</ele>
        <time>2020-01-04T20:37:56Z</time>
      </trkpt>
      <trkpt lat="44.19665" lon="3.37704">
        <ele>860</ele>
        <time>2020-01-04T20:37:57Z</time>
      </trkpt>
      <trkpt lat="44.1966" lon="3.37704">
        <ele>862</ele>
        <time>2020-01-04T20:37:59Z</time>
      </trkpt>
      <trkpt lat="44.19661" lon="3.37739">
        <ele>861</ele>
        <time>2020-01-04T20:38:04Z</time>
      </trkpt>
      <trkpt lat="44.19669" lon="3.37752">
        <ele>857</ele>
        <time>2020-01-04T20:38:07Z</time>
      </trkpt>
      <trkpt lat="44.19691" lon="3.37756">
        <ele>838</ele>
        <time>2020-01-04T20:38:13Z</time>
      </trkpt>
      <trkpt lat="44.19694" lon="3.37777">
        <ele>837</ele>
        <time>2020-01-04T20:38:16Z</time>
      </trkpt>
      <trkpt lat="44.19683" lon="3.37786">
        <ele>847</ele>
        <time>2020-01-04T20:38:19Z</time>
      </trkpt>
      <trkpt lat="44.19677" lon="3.37798">
        <ele>852</ele>
        <time>2020-01-04T20:38:22Z</time>
      </trkpt>
      <trkpt lat="44.19661" lon="3.37808">
        <ele>863</ele>
        <time>2020-01-04T20:38:26Z</time>
      </trkpt>
      <trkpt lat="44.19666" lon="3.37786">
        <ele>861</ele>
        <time>2020-01-04T20:38:30Z</time>
      </trkpt>
      <trkpt lat="44.19663" lon="3.37774">
        <ele>861</ele>
        <time>2020-01-04T20:38:32Z</time>
      </trkpt>
      <trkpt lat="44.19653" lon="3.3777">
        <ele>865</ele>
        <time>2020-01-04T20:38:34Z</time>
      </trkpt>
      <trkpt lat="44.19648" lon="3.37789">
        <ele>867</ele>
        <time>2020-01-04T20:38:37Z</time>
      </trkpt>
      <trkpt lat="44.19641" lon="3.37792">
        <ele>869</ele>
        <time>2020-01-04T20:38:39Z</time>
      </trkpt>
      <trkpt lat="44.19641" lon="3.37788">
        <ele>869</ele>
        <time>2020-01-04T20:38:40Z</time>
      </trkpt>
      <trkpt lat="44.196" lon="3.37801">
        <ele>882</ele>
        <time>2020-01-04T20:38:50Z</time>
      </trkpt>
      <trkpt lat="44.19603" lon="3.37797">
        <ele>881</ele>
        <time>2020-01-04T20:38:51Z</time>
      </trkpt>
      <trkpt lat="44.19601" lon="3.37803">
        <ele>881</ele>
        <time>2020-01-04T20:38:52Z</time>
      </trkpt>
      <trkpt lat="44.19603" lon="3.37789">
        <ele>882</ele>
        <time>2020-01-04T20:38:54Z</time>
      </trkpt>
      <trkpt lat="44.19593" lon="3.37804">
        <ele>884</ele>
        <time>2020-01-04T20:38:58Z</time>
      </trkpt>
      <trkpt lat="44.19544" lon="3.37816">
        <ele>891</ele>
        <time>2020-01-04T20:39:09Z</time>
      </trkpt>
      <trkpt lat="44.19522" lon="3.37814">
        <ele>894</ele>
        <time>2020-01-04T20:39:14Z</time>
      </trkpt>
      <trkpt lat="44.19454" lon="3.37792">
        <ele>903</ele>
        <time>2020-01-04T20:39:31Z</time>
      </trkpt>
      <trkpt lat="44.19435" lon="3.37778">
        <ele>906</ele>
        <time>2020-01-04T20:39:36Z</time>
      </trkpt>
      <trkpt lat="44.19382" lon="3.37713">
        <ele>913</ele>
        <time>2020-01-04T20:39:52Z</time>
      </trkpt>
      <trkpt lat="44.19348" lon="3.37615">
        <ele>921</ele>
        <time>2020-01-04T20:40:10Z</time>
      </trkpt>
      <trkpt lat="44.19328" lon="3.3758">
        <ele>924</ele>
        <time>2020-01-04T20:40:18Z</time>
      </trkpt>
      <trkpt lat="44.19308" lon="3.37559">
        <ele>927</ele>
        <time>2020-01-04T20:40:24Z</time>
      </trkpt>
      <trkpt lat="44.19282" lon="3.37546">
        <ele>929</ele>
        <time>2020-01-04T20:40:30Z</time>
      </trkpt>
      <trkpt lat="44.19232" lon="3.37539">
        <ele>932</ele>
        <time>2020-01-04T20:40:42Z</time>
      </trkpt>
      <trkpt lat="44.19177" lon="3.37485">
        <ele>939</ele>
        <time>2020-01-04T20:40:58Z</time>
      </trkpt>
      <trkpt lat="44.19173" lon="3.37487">
        <ele>939</ele>
        <time>2020-01-04T20:40:59Z</time>
      </trkpt>
      <trkpt lat="44.19162" lon="3.37473">
        <ele>940</ele>
        <time>2020-01-04T20:41:02Z</time>
      </trkpt>
      <trkpt lat="44.19134" lon="3.37482">
        <ele>939</ele>
        <time>2020-01-04T20:41:09Z</time>
      </trkpt>
      <trkpt lat="44.19131" lon="3.37479">
        <ele>939</ele>
        <time>2020-01-04T20:41:10Z</time>
      </trkpt>
      <trkpt lat="44.19135" lon="3.3748">
        <ele>939</ele>
        <time>2020-01-04T20:41:11Z</time>
      </trkpt>
      <trkpt lat="44.19114" lon="3.37506">
        <ele>938</ele>
        <time>2020-01-04T20:41:17Z</time>
      </trkpt>
      <trkpt lat="44.19087" lon="3.37553">
        <ele>942</ele>
        <time>2020-01-04T20:41:27Z</time>
      </trkpt>
      <trkpt lat="44.19051" lon="3.37562">
        <ele>943</ele>
        <time>2020-01-04T20:41:36Z</time>
      </trkpt>
      <trkpt lat="44.19003" lon="3.37559">
        <ele>944</ele>
        <time>2020-01-04T20:41:47Z</time>
      </trkpt>
      <trkpt lat="44.1895" lon="3.37566">
        <ele>945</ele>
        <time>2020-01-04T20:41:59Z</time>
      </trkpt>
      <trkpt lat="44.18872" lon="3.37593">
        <ele>945</ele>
        <time>2020-01-04T20:42:18Z</time>
      </trkpt>
      <trkpt lat="44.18836" lon="3.37613">
        <ele>945</ele>
        <time>2020-01-04T20:42:27Z</time>
      </trkpt>
      <trkpt lat="44.18816" lon="3.37598">
        <ele>943</ele>
        <time>2020-01-04T20:42:33Z</time>
      </trkpt>
      <trkpt lat="44.1869" lon="3.37601">
        <ele>938</ele>
        <time>2020-01-04T20:43:02Z</time>
      </trkpt>
      <trkpt lat="44.18632" lon="3.37626">
        <ele>936</ele>
        <time>2020-01-04T20:43:16Z</time>
      </trkpt>
      <trkpt lat="44.18626" lon="3.37633">
        <ele>936</ele>
        <time>2020-01-04T20:43:18Z</time>
      </trkpt>
      <trkpt lat="44.18489" lon="3.3767">
        <ele>934</ele>
        <time>2020-01-04T20:43:51Z</time>
      </trkpt>
      <trkpt lat="44.18468" lon="3.37706">
        <ele>935</ele>
        <time>2020-01-04T20:43:58Z</time>
      </trkpt>
      <trkpt lat="44.18461" lon="3.37729">
        <ele>936</ele>
        <time>2020-01-04T20:44:03Z</time>
      </trkpt>
      <trkpt lat="44.18437" lon="3.37764">
        <ele>938</ele>
        <time>2020-01-04T20:44:11Z</time>
      </trkpt>
      <trkpt lat="44.18417" lon="3.37774">
        <ele>938</ele>
        <time>2020-01-04T20:44:16Z</time>
      </trkpt>
      <trkpt lat="44.1838" lon="3.37759">
        <ele>940</ele>
        <time>2020-01-04T20:44:25Z</time>
      </trkpt>
      <trkpt lat="44.18319" lon="3.37711">
        <ele>943</ele>
        <time>2020-01-04T20:44:41Z</time>
      </trkpt>
      <trkpt lat="44.183" lon="3.37676">
        <ele>943</ele>
        <time>2020-01-04T20:44:48Z</time>
      </trkpt>
      <trkpt lat="44.18275" lon="3.37662">
        <ele>944</ele>
        <time>2020-01-04T20:44:55Z</time>
      </trkpt>
      <trkpt lat="44.1819" lon="3.37639">
        <ele>951</ele>
        <time>2020-01-04T20:45:15Z</time>
      </trkpt>
      <trkpt lat="44.18175" lon="3.37606">
        <ele>948</ele>
        <time>2020-01-04T20:45:21Z</time>
      </trkpt>
      <trkpt lat="44.18167" lon="3.37569">
        <ele>945</ele>
        <time>2020-01-04T20:45:28Z</time>
      </trkpt>
      <trkpt lat="44.18135" lon="3.37507">
        <ele>943</ele>
        <time>2020-01-04T20:45:41Z</time>
      </trkpt>
      <trkpt lat="44.18114" lon="3.37486">
        <ele>943</ele>
        <time>2020-01-04T20:45:47Z</time>
      </trkpt>
      <trkpt lat="44.18085" lon="3.3741">
        <ele>939</ele>
        <time>2020-01-04T20:46:01Z</time>
      </trkpt>
      <trkpt lat="44.18072" lon="3.37395">
        <ele>939</ele>
        <time>2020-01-04T20:46:05Z</time>
      </trkpt>
      <trkpt lat="44.1806" lon="3.37356">
        <ele>938</ele>
        <time>2020-01-04T20:46:12Z</time>
      </trkpt>
      <trkpt lat="44.18042" lon="3.37232">
        <ele>933</ele>
        <time>2020-01-04T20:46:33Z</time>
      </trkpt>
      <trkpt lat="44.18022" lon="3.37177">
        <ele>930</ele>
        <time>2020-01-04T20:46:44Z</time>
      </trkpt>
      <trkpt lat="44.18019" lon="3.3713">
        <ele>929</ele>
        <time>2020-01-04T20:46:52Z</time>
      </trkpt>
      <trkpt lat="44.18004" lon="3.37054">
        <ele>927</ele>
        <time>2020-01-04T20:47:05Z</time>
      </trkpt>
      <trkpt lat="44.17993" lon="3.36916">
        <ele>923</ele>
        <time>2020-01-04T20:47:28Z</time>
      </trkpt>
      <trkpt lat="44.18" lon="3.36882">
        <ele>923</ele>
        <time>2020-01-04T20:47:34Z</time>
      </trkpt>
      <trkpt lat="44.17987" lon="3.36797">
        <ele>922</ele>
        <time>2020-01-04T20:47:48Z</time>
      </trkpt>
      <trkpt lat="44.17949" lon="3.36734">
        <ele>919</ele>
        <time>2020-01-04T20:48:02Z</time>
      </trkpt>
      <trkpt lat="44.17937" lon="3.3668">
        <ele>918</ele>
        <time>2020-01-04T20:48:12Z</time>
      </trkpt>
      <trkpt lat="44.17939" lon="3.36608">
        <ele>917</ele>
        <time>2020-01-04T20:48:24Z</time>
      </trkpt>
      <trkpt lat="44.17917" lon="3.36524">
        <ele>915</ele>
        <time>2020-01-04T20:48:39Z</time>
      </trkpt>
      <trkpt lat="44.17907" lon="3.36499">
        <ele>915</ele>
        <time>2020-01-04T20:48:44Z</time>
      </trkpt>
      <trkpt lat="44.17881" lon="3.36394">
        <ele>918</ele>
        <time>2020-01-04T20:49:02Z</time>
      </trkpt>
      <trkpt lat="44.17848" lon="3.36307">
        <ele>921</ele>
        <time>2020-01-04T20:49:19Z</time>
      </trkpt>
      <trkpt lat="44.17842" lon="3.36267">
        <ele>921</ele>
        <time>2020-01-04T20:49:25Z</time>
      </trkpt>
      <trkpt lat="44.17895" lon="3.35953">
        <ele>914</ele>
        <time>2020-01-04T20:50:20Z</time>
      </trkpt>
      <trkpt lat="44.17887" lon="3.35883">
        <ele>914</ele>
        <time>2020-01-04T20:50:31Z</time>
      </trkpt>
      <trkpt lat="44.17859" lon="3.35761">
        <ele>916</ele>
        <time>2020-01-04T20:50:53Z</time>
      </trkpt>
      <trkpt lat="44.17867" lon="3.35722">
        <ele>918</ele>
        <time>2020-01-04T20:51:00Z</time>
      </trkpt>
      <trkpt lat="44.17846" lon="3.35684">
        <ele>919</ele>
        <time>2020-01-04T20:51:08Z</time>
      </trkpt>
      <trkpt lat="44.17836" lon="3.35629">
        <ele>922</ele>
        <time>2020-01-04T20:51:17Z</time>
      </trkpt>
      <trkpt lat="44.1782" lon="3.3558">
        <ele>925</ele>
        <time>2020-01-04T20:51:26Z</time>
      </trkpt>
      <trkpt lat="44.17788" lon="3.35547">
        <ele>926</ele>
        <time>2020-01-04T20:51:35Z</time>
      </trkpt>
      <trkpt lat="44.17593" lon="3.35433">
        <ele>929</ele>
        <time>2020-01-04T20:52:25Z</time>
      </trkpt>
      <trkpt lat="44.17561" lon="3.35397">
        <ele>934</ele>
        <time>2020-01-04T20:52:34Z</time>
      </trkpt>
      <trkpt lat="44.17525" lon="3.35323">
        <ele>943</ele>
        <time>2020-01-04T20:52:49Z</time>
      </trkpt>
      <trkpt lat="44.17512" lon="3.35269">
        <ele>947</ele>
        <time>2020-01-04T20:52:59Z</time>
      </trkpt>
      <trkpt lat="44.17515" lon="3.35201">
        <ele>948</ele>
        <time>2020-01-04T20:53:10Z</time>
      </trkpt>
      <trkpt lat="44.17535" lon="3.3514">
        <ele>948</ele>
        <time>2020-01-04T20:53:22Z</time>
      </trkpt>
      <trkpt lat="44.17543" lon="3.35084">
        <ele>946</ele>
        <time>2020-01-04T20:53:31Z</time>
      </trkpt>
      <trkpt lat="44.17575" lon="3.34986">
        <ele>939</ele>
        <time>2020-01-04T20:53:49Z</time>
      </trkpt>
      <trkpt lat="44.17596" lon="3.34761">
        <ele>932</ele>
        <time>2020-01-04T20:54:27Z</time>
      </trkpt>
      <trkpt lat="44.17586" lon="3.34605">
        <ele>929</ele>
        <time>2020-01-04T20:54:53Z</time>
      </trkpt>
      <trkpt lat="44.17592" lon="3.34378">
        <ele>922</ele>
        <time>2020-01-04T20:55:32Z</time>
      </trkpt>
      <trkpt lat="44.17598" lon="3.34359">
        <ele>922</ele>
        <time>2020-01-04T20:55:35Z</time>
      </trkpt>
      <trkpt lat="44.17605" lon="3.34297">
        <ele>921</ele>
        <time>2020-01-04T20:55:46Z</time>
      </trkpt>
      <trkpt lat="44.17631" lon="3.34146">
        <ele>922</ele>
        <time>2020-01-04T20:56:12Z</time>
      </trkpt>
      <trkpt lat="44.17631" lon="3.33994">
        <ele>925</ele>
        <time>2020-01-04T20:56:37Z</time>
      </trkpt>
      <trkpt lat="44.17636" lon="3.33934">
        <ele>925</ele>
        <time>2020-01-04T20:56:47Z</time>
      </trkpt>
      <trkpt lat="44.17635" lon="3.33786">
        <ele>927</ele>
        <time>2020-01-04T20:57:12Z</time>
      </trkpt>
      <trkpt lat="44.17623" lon="3.33676">
        <ele>933</ele>
        <time>2020-01-04T20:57:31Z</time>
      </trkpt>
      <trkpt lat="44.17598" lon="3.33566">
        <ele>934</ele>
        <time>2020-01-04T20:57:50Z</time>
      </trkpt>
      <trkpt lat="44.17588" lon="3.3349">
        <ele>933</ele>
        <time>2020-01-04T20:58:03Z</time>
      </trkpt>
      <trkpt lat="44.17566" lon="3.33393">
        <ele>934</ele>
        <time>2020-01-04T20:58:20Z</time>
      </trkpt>
      <trkpt lat="44.17562" lon="3.33347">
        <ele>934</ele>
        <time>2020-01-04T20:58:28Z</time>
      </trkpt>
      <trkpt lat="44.17545" lon="3.33294">
        <ele>933</ele>
        <time>2020-01-04T20:58:37Z</time>
      </trkpt>
      <trkpt lat="44.17506" lon="3.3324">
        <ele>934</ele>
        <time>2020-01-04T20:58:50Z</time>
      </trkpt>
      <trkpt lat="44.17488" lon="3.33205">
        <ele>935</ele>
        <time>2020-01-04T20:58:57Z</time>
      </trkpt>
      <trkpt lat="44.17471" lon="3.33096">
        <ele>931</ele>
        <time>2020-01-04T20:59:16Z</time>
      </trkpt>
      <trkpt lat="44.17453" lon="3.33023">
        <ele>927</ele>
        <time>2020-01-04T20:59:29Z</time>
      </trkpt>
      <trkpt lat="44.17438" lon="3.32917">
        <ele>924</ele>
        <time>2020-01-04T20:59:47Z</time>
      </trkpt>
      <trkpt lat="44.17439" lon="3.32834">
        <ele>923</ele>
        <time>2020-01-04T21:00:01Z</time>
      </trkpt>
      <trkpt lat="44.17433" lon="3.32777">
        <ele>926</ele>
        <time>2020-01-04T21:00:11Z</time>
      </trkpt>
      <trkpt lat="44.17404" lon="3.32654">
        <ele>933</ele>
        <time>2020-01-04T21:00:32Z</time>
      </trkpt>
      <trkpt lat="44.17402" lon="3.32625">
        <ele>932</ele>
        <time>2020-01-04T21:00:37Z</time>
      </trkpt>
      <trkpt lat="44.17477" lon="3.32562">
        <ele>934</ele>
        <time>2020-01-04T21:00:58Z</time>
      </trkpt>
      <trkpt lat="44.17558" lon="3.32512">
        <ele>940</ele>
        <time>2020-01-04T21:01:18Z</time>
      </trkpt>
      <trkpt lat="44.17563" lon="3.3247">
        <ele>941</ele>
        <time>2020-01-04T21:01:25Z</time>
      </trkpt>
      <trkpt lat="44.17578" lon="3.32429">
        <ele>942</ele>
        <time>2020-01-04T21:01:33Z</time>
      </trkpt>
      <trkpt lat="44.17607" lon="3.32384">
        <ele>944</ele>
        <time>2020-01-04T21:01:43Z</time>
      </trkpt>
      <trkpt lat="44.17644" lon="3.32341">
        <ele>946</ele>
        <time>2020-01-04T21:01:55Z</time>
      </trkpt>
      <trkpt lat="44.17731" lon="3.32258">
        <ele>944</ele>
        <time>2020-01-04T21:02:19Z</time>
      </trkpt>
      <trkpt lat="44.17796" lon="3.32188">
        <ele>945</ele>
        <time>2020-01-04T21:02:38Z</time>
      </trkpt>
      <trkpt lat="44.17813" lon="3.32157">
        <ele>947</ele>
        <time>2020-01-04T21:02:45Z</time>
      </trkpt>
      <trkpt lat="44.17823" lon="3.32116">
        <ele>949</ele>
        <time>2020-01-04T21:02:52Z</time>
      </trkpt>
      <trkpt lat="44.17825" lon="3.32067">
        <ele>951</ele>
        <time>2020-01-04T21:03:00Z</time>
      </trkpt>
      <trkpt lat="44.17853" lon="3.31926">
        <ele>949</ele>
        <time>2020-01-04T21:03:25Z</time>
      </trkpt>
      <trkpt lat="44.1786" lon="3.31862">
        <ele>947</ele>
        <time>2020-01-04T21:03:36Z</time>
      </trkpt>
      <trkpt lat="44.1787" lon="3.31825">
        <ele>945</ele>
        <time>2020-01-04T21:03:42Z</time>
      </trkpt>
      <trkpt lat="44.17897" lon="3.31792">
        <ele>942</ele>
        <time>2020-01-04T21:03:51Z</time>
      </trkpt>
      <trkpt lat="44.17936" lon="3.31727">
        <ele>937</ele>
        <time>2020-01-04T21:04:05Z</time>
      </trkpt>
      <trkpt lat="44.17972" lon="3.31601">
        <ele>932</ele>
        <time>2020-01-04T21:04:28Z</time>
      </trkpt>
      <trkpt lat="44.18009" lon="3.31562">
        <ele>930</ele>
        <time>2020-01-04T21:04:38Z</time>
      </trkpt>
      <trkpt lat="44.1806" lon="3.31462">
        <ele>928</ele>
        <time>2020-01-04T21:04:59Z</time>
      </trkpt>
      <trkpt lat="44.18166" lon="3.31314">
        <ele>925</ele>
        <time>2020-01-04T21:05:34Z</time>
      </trkpt>
      <trkpt lat="44.1818" lon="3.31272">
        <ele>926</ele>
        <time>2020-01-04T21:05:42Z</time>
      </trkpt>
      <trkpt lat="44.18164" lon="3.31197">
        <ele>927</ele>
        <time>2020-01-04T21:05:55Z</time>
      </trkpt>
      <trkpt lat="44.18182" lon="3.31095">
        <ele>925</ele>
        <time>2020-01-04T21:06:12Z</time>
      </trkpt>
      <trkpt lat="44.18225" lon="3.30985">
        <ele>922</ele>
        <time>2020-01-04T21:06:33Z</time>
      </trkpt>
      <trkpt lat="44.18284" lon="3.30851">
        <ele>919</ele>
        <time>2020-01-04T21:07:00Z</time>
      </trkpt>
      <trkpt lat="44.18316" lon="3.30807">
        <ele>914</ele>
        <time>2020-01-04T21:07:10Z</time>
      </trkpt>
      <trkpt lat="44.18375" lon="3.30759">
        <ele>907</ele>
        <time>2020-01-04T21:07:26Z</time>
      </trkpt>
      <trkpt lat="44.18357" lon="3.30766">
        <ele>908</ele>
        <time>2020-01-04T21:07:31Z</time>
      </trkpt>
      <trkpt lat="44.18363" lon="3.30724">
        <ele>903</ele>
        <time>2020-01-04T21:07:38Z</time>
      </trkpt>
      <trkpt lat="44.18385" lon="3.30688">
        <ele>899</ele>
        <time>2020-01-04T21:07:46Z</time>
      </trkpt>
      <trkpt lat="44.1838" lon="3.30668">
        <ele>897</ele>
        <time>2020-01-04T21:07:49Z</time>
      </trkpt>
      <trkpt lat="44.18381" lon="3.30637">
        <ele>892</ele>
        <time>2020-01-04T21:07:54Z</time>
      </trkpt>
      <trkpt lat="44.18399" lon="3.30596">
        <ele>887</ele>
        <time>2020-01-04T21:08:02Z</time>
      </trkpt>
      <trkpt lat="44.18399" lon="3.30577">
        <ele>884</ele>
        <time>2020-01-04T21:08:06Z</time>
      </trkpt>
      <trkpt lat="44.18431" lon="3.30526">
        <ele>878</ele>
        <time>2020-01-04T21:08:17Z</time>
      </trkpt>
      <trkpt lat="44.18425" lon="3.30466">
        <ele>873</ele>
        <time>2020-01-04T21:08:27Z</time>
      </trkpt>
      <trkpt lat="44.18429" lon="3.30449">
        <ele>872</ele>
        <time>2020-01-04T21:08:30Z</time>
      </trkpt>
      <trkpt lat="44.18451" lon="3.30404">
        <ele>868</ele>
        <time>2020-01-04T21:08:39Z</time>
      </trkpt>
      <trkpt lat="44.18485" lon="3.30365">
        <ele>868</ele>
        <time>2020-01-04T21:08:50Z</time>
      </trkpt>
      <trkpt lat="44.18527" lon="3.3028">
        <ele>869</ele>
        <time>2020-01-04T21:09:07Z</time>
      </trkpt>
      <trkpt lat="44.18559" lon="3.30173">
        <ele>873</ele>
        <time>2020-01-04T21:09:26Z</time>
      </trkpt>
      <trkpt lat="44.18578" lon="3.30127">
        <ele>874</ele>
        <time>2020-01-04T21:09:35Z</time>
      </trkpt>
      <trkpt lat="44.18554" lon="3.3005">
        <ele>876</ele>
        <time>2020-01-04T21:09:49Z</time>
      </trkpt>
      <trkpt lat="44.18545" lon="3.29981">
        <ele>876</ele>
        <time>2020-01-04T21:10:01Z</time>
      </trkpt>
      <trkpt lat="44.18531" lon="3.29923">
        <ele>876</ele>
        <time>2020-01-04T21:10:11Z</time>
      </trkpt>
      <trkpt lat="44.18526" lon="3.29926">
        <ele>876</ele>
        <time>2020-01-04T21:10:12Z</time>
      </trkpt>
      <trkpt lat="44.18532" lon="3.2992">
        <ele>876</ele>
        <time>2020-01-04T21:10:14Z</time>
      </trkpt>
      <trkpt lat="44.18528" lon="3.29918">
        <ele>876</ele>
        <time>2020-01-04T21:10:15Z</time>
      </trkpt>
      <trkpt lat="44.18506" lon="3.29811">
        <ele>877</ele>
        <time>2020-01-04T21:10:34Z</time>
      </trkpt>
      <trkpt lat="44.18551" lon="3.29532">
        <ele>874</ele>
        <time>2020-01-04T21:11:22Z</time>
      </trkpt>
      <trkpt lat="44.18549" lon="3.2951">
        <ele>872</ele>
        <time>2020-01-04T21:11:25Z</time>
      </trkpt>
      <trkpt lat="44.1853" lon="3.29468">
        <ele>869</ele>
        <time>2020-01-04T21:11:34Z</time>
      </trkpt>
      <trkpt lat="44.18508" lon="3.29448">
        <ele>867</ele>
        <time>2020-01-04T21:11:40Z</time>
      </trkpt>
      <trkpt lat="44.1848" lon="3.29414">
        <ele>865</ele>
        <time>2020-01-04T21:11:49Z</time>
      </trkpt>
      <trkpt lat="44.18465" lon="3.29371">
        <ele>863</ele>
        <time>2020-01-04T21:11:57Z</time>
      </trkpt>
      <trkpt lat="44.1845" lon="3.29255">
        <ele>858</ele>
        <time>2020-01-04T21:12:16Z</time>
      </trkpt>
      <trkpt lat="44.18439" lon="3.29191">
        <ele>858</ele>
        <time>2020-01-04T21:12:27Z</time>
      </trkpt>
      <trkpt lat="44.18429" lon="3.29101">
        <ele>859</ele>
        <time>2020-01-04T21:12:43Z</time>
      </trkpt>
      <trkpt lat="44.18429" lon="3.29049">
        <ele>860</ele>
        <time>2020-01-04T21:12:51Z</time>
      </trkpt>
      <trkpt lat="44.18444" lon="3.29017">
        <ele>861</ele>
        <time>2020-01-04T21:12:58Z</time>
      </trkpt>
      <trkpt lat="44.18446" lon="3.29002">
        <ele>861</ele>
        <time>2020-01-04T21:13:00Z</time>
      </trkpt>
      <trkpt lat="44.18448" lon="3.2892">
        <ele>862</ele>
        <time>2020-01-04T21:13:14Z</time>
      </trkpt>
      <trkpt lat="44.18446" lon="3.28794">
        <ele>863</ele>
        <time>2020-01-04T21:13:35Z</time>
      </trkpt>
      <trkpt lat="44.18452" lon="3.28768">
        <ele>862</ele>
        <time>2020-01-04T21:13:40Z</time>
      </trkpt>
      <trkpt lat="44.18452" lon="3.28717">
        <ele>861</ele>
        <time>2020-01-04T21:13:48Z</time>
      </trkpt>
      <trkpt lat="44.18446" lon="3.28699">
        <ele>861</ele>
        <time>2020-01-04T21:13:52Z</time>
      </trkpt>
      <trkpt lat="44.18448" lon="3.28579">
        <ele>859</ele>
        <time>2020-01-04T21:14:12Z</time>
      </trkpt>
      <trkpt lat="44.18446" lon="3.28476">
        <ele>857</ele>
        <time>2020-01-04T21:14:29Z</time>
      </trkpt>
      <trkpt lat="44.18469" lon="3.28337">
        <ele>862</ele>
        <time>2020-01-04T21:14:53Z</time>
      </trkpt>
      <trkpt lat="44.18467" lon="3.28311">
        <ele>864</ele>
        <time>2020-01-04T21:14:57Z</time>
      </trkpt>
      <trkpt lat="44.18461" lon="3.28283">
        <ele>866</ele>
        <time>2020-01-04T21:15:02Z</time>
      </trkpt>
      <trkpt lat="44.18444" lon="3.28251">
        <ele>867</ele>
        <time>2020-01-04T21:15:09Z</time>
      </trkpt>
      <trkpt lat="44.18396" lon="3.28176">
        <ele>872</ele>
        <time>2020-01-04T21:15:26Z</time>
      </trkpt>
      <trkpt lat="44.18394" lon="3.28161">
        <ele>873</ele>
        <time>2020-01-04T21:15:28Z</time>
      </trkpt>
      <trkpt lat="44.18399" lon="3.28146">
        <ele>873</ele>
        <time>2020-01-04T21:15:31Z</time>
      </trkpt>
      <trkpt lat="44.18439" lon="3.28107">
        <ele>878</ele>
        <time>2020-01-04T21:15:42Z</time>
      </trkpt>
      <trkpt lat="44.18463" lon="3.28077">
        <ele>880</ele>
        <time>2020-01-04T21:15:50Z</time>
      </trkpt>
      <trkpt lat="44.18467" lon="3.28064">
        <ele>880</ele>
        <time>2020-01-04T21:15:52Z</time>
      </trkpt>
      <trkpt lat="44.18476" lon="3.28011">
        <ele>881</ele>
        <time>2020-01-04T21:16:01Z</time>
      </trkpt>
      <trkpt lat="44.18476" lon="3.27993">
        <ele>881</ele>
        <time>2020-01-04T21:16:04Z</time>
      </trkpt>
      <trkpt lat="44.18461" lon="3.27942">
        <ele>877</ele>
        <time>2020-01-04T21:16:14Z</time>
      </trkpt>
      <trkpt lat="44.18467" lon="3.27852">
        <ele>875</ele>
        <time>2020-01-04T21:16:29Z</time>
      </trkpt>
      <trkpt lat="44.18476" lon="3.2782">
        <ele>876</ele>
        <time>2020-01-04T21:16:34Z</time>
      </trkpt>
      <trkpt lat="44.18478" lon="3.2779">
        <ele>878</ele>
        <time>2020-01-04T21:16:39Z</time>
      </trkpt>
      <trkpt lat="44.18491" lon="3.27734">
        <ele>881</ele>
        <time>2020-01-04T21:16:49Z</time>
      </trkpt>
      <trkpt lat="44.18478" lon="3.2779">
        <ele>878</ele>
        <time>2020-01-04T21:16:59Z</time>
      </trkpt>
      <trkpt lat="44.18476" lon="3.2782">
        <ele>876</ele>
        <time>2020-01-04T21:17:04Z</time>
      </trkpt>
      <trkpt lat="44.18467" lon="3.27852">
        <ele>875</ele>
        <time>2020-01-04T21:17:10Z</time>
      </trkpt>
      <trkpt lat="44.18476" lon="3.2782">
        <ele>876</ele>
        <time>2020-01-04T21:17:16Z</time>
      </trkpt>
      <trkpt lat="44.18478" lon="3.2779">
        <ele>878</ele>
        <time>2020-01-04T21:17:21Z</time>
      </trkpt>
      <trkpt lat="44.18491" lon="3.27734">
        <ele>881</ele>
        <time>2020-01-04T21:17:31Z</time>
      </trkpt>
      <trkpt lat="44.18523" lon="3.27614">
        <ele>884</ele>
        <time>2020-01-04T21:17:52Z</time>
      </trkpt>
      <trkpt lat="44.18542" lon="3.27566">
        <ele>883</ele>
        <time>2020-01-04T21:18:01Z</time>
      </trkpt>
      <trkpt lat="44.18545" lon="3.27551">
        <ele>883</ele>
        <time>2020-01-04T21:18:04Z</time>
      </trkpt>
      <trkpt lat="44.18547" lon="3.27489">
        <ele>885</ele>
        <time>2020-01-04T21:18:14Z</time>
      </trkpt>
      <trkpt lat="44.18545" lon="3.27472">
        <ele>885</ele>
        <time>2020-01-04T21:18:17Z</time>
      </trkpt>
      <trkpt lat="44.18521" lon="3.27442">
        <ele>887</ele>
        <time>2020-01-04T21:18:25Z</time>
      </trkpt>
      <trkpt lat="44.18517" lon="3.27425">
        <ele>887</ele>
        <time>2020-01-04T21:18:28Z</time>
      </trkpt>
      <trkpt lat="44.18508" lon="3.27405">
        <ele>887</ele>
        <time>2020-01-04T21:18:32Z</time>
      </trkpt>
      <trkpt lat="44.18472" lon="3.27345">
        <ele>885</ele>
        <time>2020-01-04T21:18:45Z</time>
      </trkpt>
      <trkpt lat="44.18465" lon="3.27324">
        <ele>885</ele>
        <time>2020-01-04T21:18:49Z</time>
      </trkpt>
      <trkpt lat="44.18484" lon="3.27088">
        <ele>886</ele>
        <time>2020-01-04T21:19:28Z</time>
      </trkpt>
      <trkpt lat="44.18493" lon="3.27024">
        <ele>890</ele>
        <time>2020-01-04T21:19:39Z</time>
      </trkpt>
      <trkpt lat="44.18489" lon="3.26976">
        <ele>893</ele>
        <time>2020-01-04T21:19:47Z</time>
      </trkpt>
      <trkpt lat="44.18482" lon="3.26944">
        <ele>896</ele>
        <time>2020-01-04T21:19:53Z</time>
      </trkpt>
      <trkpt lat="44.18472" lon="3.26931">
        <ele>897</ele>
        <time>2020-01-04T21:19:56Z</time>
      </trkpt>
      <trkpt lat="44.18427" lon="3.26912">
        <ele>897</ele>
        <time>2020-01-04T21:20:07Z</time>
      </trkpt>
      <trkpt lat="44.18405" lon="3.26895">
        <ele>899</ele>
        <time>2020-01-04T21:20:13Z</time>
      </trkpt>
      <trkpt lat="44.18369" lon="3.26875">
        <ele>900</ele>
        <time>2020-01-04T21:20:22Z</time>
      </trkpt>
      <trkpt lat="44.18351" lon="3.26856">
        <ele>902</ele>
        <time>2020-01-04T21:20:27Z</time>
      </trkpt>
      <trkpt lat="44.18341" lon="3.26828">
        <ele>905</ele>
        <time>2020-01-04T21:20:33Z</time>
      </trkpt>
      <trkpt lat="44.18308" lon="3.26706">
        <ele>909</ele>
        <time>2020-01-04T21:20:54Z</time>
      </trkpt>
      <trkpt lat="44.18306" lon="3.26678">
        <ele>909</ele>
        <time>2020-01-04T21:20:59Z</time>
      </trkpt>
      <trkpt lat="44.18317" lon="3.26618">
        <ele>909</ele>
        <time>2020-01-04T21:21:10Z</time>
      </trkpt>
      <trkpt lat="44.18306" lon="3.26571">
        <ele>909</ele>
        <time>2020-01-04T21:21:18Z</time>
      </trkpt>
      <trkpt lat="44.18302" lon="3.26541">
        <ele>911</ele>
        <time>2020-01-04T21:21:23Z</time>
      </trkpt>
      <trkpt lat="44.18296" lon="3.26521">
        <ele>911</ele>
        <time>2020-01-04T21:21:27Z</time>
      </trkpt>
      <trkpt lat="44.18281" lon="3.26502">
        <ele>912</ele>
        <time>2020-01-04T21:21:31Z</time>
      </trkpt>
      <trkpt lat="44.18263" lon="3.26472">
        <ele>913</ele>
        <time>2020-01-04T21:21:38Z</time>
      </trkpt>
      <trkpt lat="44.18244" lon="3.26397">
        <ele>916</ele>
        <time>2020-01-04T21:21:51Z</time>
      </trkpt>
      <trkpt lat="44.18229" lon="3.26373">
        <ele>917</ele>
        <time>2020-01-04T21:21:56Z</time>
      </trkpt>
      <trkpt lat="44.18229" lon="3.26343">
        <ele>917</ele>
        <time>2020-01-04T21:22:02Z</time>
      </trkpt>
      <trkpt lat="44.1821" lon="3.26309">
        <ele>918</ele>
        <time>2020-01-04T21:22:09Z</time>
      </trkpt>
      <trkpt lat="44.18199" lon="3.26255">
        <ele>918</ele>
        <time>2020-01-04T21:22:18Z</time>
      </trkpt>
      <trkpt lat="44.18201" lon="3.26193">
        <ele>914</ele>
        <time>2020-01-04T21:22:29Z</time>
      </trkpt>
      <trkpt lat="44.18199" lon="3.26178">
        <ele>913</ele>
        <time>2020-01-04T21:22:31Z</time>
      </trkpt>
      <trkpt lat="44.18167" lon="3.26169">
        <ele>913</ele>
        <time>2020-01-04T21:22:39Z</time>
      </trkpt>
      <trkpt lat="44.1812" lon="3.26165">
        <ele>914</ele>
        <time>2020-01-04T21:22:50Z</time>
      </trkpt>
      <trkpt lat="44.1807" lon="3.26165">
        <ele>915</ele>
        <time>2020-01-04T21:23:01Z</time>
      </trkpt>
      <trkpt lat="44.18062" lon="3.26159">
        <ele>915</ele>
        <time>2020-01-04T21:23:03Z</time>
      </trkpt>
      <trkpt lat="44.18049" lon="3.26118">
        <ele>912</ele>
        <time>2020-01-04T21:23:11Z</time>
      </trkpt>
      <trkpt lat="44.1798" lon="3.26">
        <ele>908</ele>
        <time>2020-01-04T21:23:36Z</time>
      </trkpt>
      <trkpt lat="44.17976" lon="3.25976">
        <ele>909</ele>
        <time>2020-01-04T21:23:41Z</time>
      </trkpt>
      <trkpt lat="44.17976" lon="3.25955">
        <ele>910</ele>
        <time>2020-01-04T21:23:44Z</time>
      </trkpt>
      <trkpt lat="44.17984" lon="3.25938">
        <ele>910</ele>
        <time>2020-01-04T21:23:48Z</time>
      </trkpt>
      <trkpt lat="44.1801" lon="3.2591">
        <ele>908</ele>
        <time>2020-01-04T21:23:55Z</time>
      </trkpt>
      <trkpt lat="44.18021" lon="3.25893">
        <ele>908</ele>
        <time>2020-01-04T21:23:59Z</time>
      </trkpt>
      <trkpt lat="44.18032" lon="3.25796">
        <ele>911</ele>
        <time>2020-01-04T21:24:15Z</time>
      </trkpt>
      <trkpt lat="44.18042" lon="3.25781">
        <ele>910</ele>
        <time>2020-01-04T21:24:19Z</time>
      </trkpt>
      <trkpt lat="44.18075" lon="3.25753">
        <ele>908</ele>
        <time>2020-01-04T21:24:28Z</time>
      </trkpt>
      <trkpt lat="44.18083" lon="3.2574">
        <ele>907</ele>
        <time>2020-01-04T21:24:31Z</time>
      </trkpt>
      <trkpt lat="44.18081" lon="3.25719">
        <ele>907</ele>
        <time>2020-01-04T21:24:34Z</time>
      </trkpt>
      <trkpt lat="44.18049" lon="3.25672">
        <ele>910</ele>
        <time>2020-01-04T21:24:45Z</time>
      </trkpt>
      <trkpt lat="44.1804" lon="3.25635">
        <ele>912</ele>
        <time>2020-01-04T21:24:52Z</time>
      </trkpt>
      <trkpt lat="44.1804" lon="3.25607">
        <ele>912</ele>
        <time>2020-01-04T21:24:56Z</time>
      </trkpt>
      <trkpt lat="44.1801" lon="3.25534">
        <ele>913</ele>
        <time>2020-01-04T21:25:11Z</time>
      </trkpt>
      <trkpt lat="44.17997" lon="3.25519">
        <ele>913</ele>
        <time>2020-01-04T21:25:14Z</time>
      </trkpt>
      <trkpt lat="44.17967" lon="3.25496">
        <ele>914</ele>
        <time>2020-01-04T21:25:22Z</time>
      </trkpt>
      <trkpt lat="44.17944" lon="3.25457">
        <ele>912</ele>
        <time>2020-01-04T21:25:31Z</time>
      </trkpt>
      <trkpt lat="44.1792" lon="3.25399">
        <ele>910</ele>
        <time>2020-01-04T21:25:42Z</time>
      </trkpt>
      <trkpt lat="44.17909" lon="3.25361">
        <ele>909</ele>
        <time>2020-01-04T21:25:49Z</time>
      </trkpt>
      <trkpt lat="44.17912" lon="3.25253">
        <ele>906</ele>
        <time>2020-01-04T21:26:07Z</time>
      </trkpt>
      <trkpt lat="44.17924" lon="3.252">
        <ele>906</ele>
        <time>2020-01-04T21:26:16Z</time>
      </trkpt>
      <trkpt lat="44.17929" lon="3.25118">
        <ele>905</ele>
        <time>2020-01-04T21:26:30Z</time>
      </trkpt>
      <trkpt lat="44.17939" lon="3.25013">
        <ele>904</ele>
        <time>2020-01-04T21:26:48Z</time>
      </trkpt>
      <trkpt lat="44.17944" lon="3.24991">
        <ele>904</ele>
        <time>2020-01-04T21:26:52Z</time>
      </trkpt>
      <trkpt lat="44.17957" lon="3.24955">
        <ele>903</ele>
        <time>2020-01-04T21:26:59Z</time>
      </trkpt>
      <trkpt lat="44.17963" lon="3.24925">
        <ele>903</ele>
        <time>2020-01-04T21:27:04Z</time>
      </trkpt>
      <trkpt lat="44.1796" lon="3.2491">
        <ele>903</ele>
        <time>2020-01-04T21:27:06Z</time>
      </trkpt>
      <trkpt lat="44.17966" lon="3.24905">
        <ele>902</ele>
        <time>2020-01-04T21:27:08Z</time>
      </trkpt>
      <trkpt lat="44.17964" lon="3.24902">
        <ele>902</ele>
        <time>2020-01-04T21:27:09Z</time>
      </trkpt>
      <trkpt lat="44.17972" lon="3.24893">
        <ele>902</ele>
        <time>2020-01-04T21:27:11Z</time>
      </trkpt>
      <trkpt lat="44.17993" lon="3.24884">
        <ele>902</ele>
        <time>2020-01-04T21:27:16Z</time>
      </trkpt>
      <trkpt lat="44.18027" lon="3.24878">
        <ele>901</ele>
        <time>2020-01-04T21:27:24Z</time>
      </trkpt>
      <trkpt lat="44.18038" lon="3.24871">
        <ele>901</ele>
        <time>2020-01-04T21:27:27Z</time>
      </trkpt>
      <trkpt lat="44.18077" lon="3.24869">
        <ele>899</ele>
        <time>2020-01-04T21:27:36Z</time>
      </trkpt>
      <trkpt lat="44.1809" lon="3.24865">
        <ele>898</ele>
        <time>2020-01-04T21:27:39Z</time>
      </trkpt>
      <trkpt lat="44.18105" lon="3.24854">
        <ele>897</ele>
        <time>2020-01-04T21:27:43Z</time>
      </trkpt>
      <trkpt lat="44.18139" lon="3.24824">
        <ele>893</ele>
        <time>2020-01-04T21:27:53Z</time>
      </trkpt>
      <trkpt lat="44.1815" lon="3.24818">
        <ele>891</ele>
        <time>2020-01-04T21:27:55Z</time>
      </trkpt>
      <trkpt lat="44.1816" lon="3.24807">
        <ele>890</ele>
        <time>2020-01-04T21:27:58Z</time>
      </trkpt>
      <trkpt lat="44.18169" lon="3.2479">
        <ele>887</ele>
        <time>2020-01-04T21:28:02Z</time>
      </trkpt>
      <trkpt lat="44.18197" lon="3.24762">
        <ele>880</ele>
        <time>2020-01-04T21:28:10Z</time>
      </trkpt>
      <trkpt lat="44.18203" lon="3.24738">
        <ele>878</ele>
        <time>2020-01-04T21:28:14Z</time>
      </trkpt>
      <trkpt lat="44.18225" lon="3.24715">
        <ele>874</ele>
        <time>2020-01-04T21:28:21Z</time>
      </trkpt>
      <trkpt lat="44.18238" lon="3.24706">
        <ele>871</ele>
        <time>2020-01-04T21:28:24Z</time>
      </trkpt>
      <trkpt lat="44.18256" lon="3.24702">
        <ele>868</ele>
        <time>2020-01-04T21:28:28Z</time>
      </trkpt>
      <trkpt lat="44.18256" lon="3.2468">
        <ele>868</ele>
        <time>2020-01-04T21:28:32Z</time>
      </trkpt>
      <trkpt lat="44.18256" lon="3.24702">
        <ele>868</ele>
        <time>2020-01-04T21:28:36Z</time>
      </trkpt>
      <trkpt lat="44.18272" lon="3.24704">
        <ele>864</ele>
        <time>2020-01-04T21:28:39Z</time>
      </trkpt>
      <trkpt lat="44.18281" lon="3.247">
        <ele>862</ele>
        <time>2020-01-04T21:28:42Z</time>
      </trkpt>
      <trkpt lat="44.18289" lon="3.24685">
        <ele>861</ele>
        <time>2020-01-04T21:28:45Z</time>
      </trkpt>
      <trkpt lat="44.18296" lon="3.2468">
        <ele>860</ele>
        <time>2020-01-04T21:28:47Z</time>
      </trkpt>
      <trkpt lat="44.18304" lon="3.2468">
        <ele>858</ele>
        <time>2020-01-04T21:28:48Z</time>
      </trkpt>
      <trkpt lat="44.18324" lon="3.24674">
        <ele>854</ele>
        <time>2020-01-04T21:28:53Z</time>
      </trkpt>
      <trkpt lat="44.18328" lon="3.24663">
        <ele>854</ele>
        <time>2020-01-04T21:28:55Z</time>
      </trkpt>
      <trkpt lat="44.18324" lon="3.24652">
        <ele>855</ele>
        <time>2020-01-04T21:28:57Z</time>
      </trkpt>
      <trkpt lat="44.18326" lon="3.24646">
        <ele>854</ele>
        <time>2020-01-04T21:28:58Z</time>
      </trkpt>
      <trkpt lat="44.18345" lon="3.24652">
        <ele>851</ele>
        <time>2020-01-04T21:29:03Z</time>
      </trkpt>
      <trkpt lat="44.1836" lon="3.2465">
        <ele>849</ele>
        <time>2020-01-04T21:29:07Z</time>
      </trkpt>
      <trkpt lat="44.18364" lon="3.24661">
        <ele>849</ele>
        <time>2020-01-04T21:29:09Z</time>
      </trkpt>
      <trkpt lat="44.18369" lon="3.24665">
        <ele>849</ele>
        <time>2020-01-04T21:29:10Z</time>
      </trkpt>
      <trkpt lat="44.18396" lon="3.24676">
        <ele>844</ele>
        <time>2020-01-04T21:29:17Z</time>
      </trkpt>
      <trkpt lat="44.18416" lon="3.24667">
        <ele>843</ele>
        <time>2020-01-04T21:29:21Z</time>
      </trkpt>
      <trkpt lat="44.18427" lon="3.24659">
        <ele>841</ele>
        <time>2020-01-04T21:29:24Z</time>
      </trkpt>
      <trkpt lat="44.1845" lon="3.24652">
        <ele>837</ele>
        <time>2020-01-04T21:29:30Z</time>
      </trkpt>
      <trkpt lat="44.1848" lon="3.24637">
        <ele>833</ele>
        <time>2020-01-04T21:29:37Z</time>
      </trkpt>
      <trkpt lat="44.18481" lon="3.24642">
        <ele>832</ele>
        <time>2020-01-04T21:29:38Z</time>
      </trkpt>
      <trkpt lat="44.1848" lon="3.24637">
        <ele>833</ele>
        <time>2020-01-04T21:29:39Z</time>
      </trkpt>
      <trkpt lat="44.18474" lon="3.2464">
        <ele>833</ele>
        <time>2020-01-04T21:29:40Z</time>
      </trkpt>
      <trkpt lat="44.18506" lon="3.24629">
        <ele>828</ele>
        <time>2020-01-04T21:29:48Z</time>
      </trkpt>
      <trkpt lat="44.18523" lon="3.2461">
        <ele>823</ele>
        <time>2020-01-04T21:29:53Z</time>
      </trkpt>
      <trkpt lat="44.18541" lon="3.2458">
        <ele>820</ele>
        <time>2020-01-04T21:30:00Z</time>
      </trkpt>
      <trkpt lat="44.18545" lon="3.24581">
        <ele>819</ele>
        <time>2020-01-04T21:30:01Z</time>
      </trkpt>
      <trkpt lat="44.18541" lon="3.2458">
        <ele>820</ele>
        <time>2020-01-04T21:30:02Z</time>
      </trkpt>
      <trkpt lat="44.1854" lon="3.24584">
        <ele>820</ele>
        <time>2020-01-04T21:30:02Z</time>
      </trkpt>
      <trkpt lat="44.18547" lon="3.24558">
        <ele>820</ele>
        <time>2020-01-04T21:30:07Z</time>
      </trkpt>
      <trkpt lat="44.18551" lon="3.24556">
        <ele>819</ele>
        <time>2020-01-04T21:30:08Z</time>
      </trkpt>
      <trkpt lat="44.1857" lon="3.24509">
        <ele>818</ele>
        <time>2020-01-04T21:30:17Z</time>
      </trkpt>
      <trkpt lat="44.18585" lon="3.24461">
        <ele>812</ele>
        <time>2020-01-04T21:30:26Z</time>
      </trkpt>
      <trkpt lat="44.18594" lon="3.24453">
        <ele>808</ele>
        <time>2020-01-04T21:30:28Z</time>
      </trkpt>
      <trkpt lat="44.18585" lon="3.24461">
        <ele>812</ele>
        <time>2020-01-04T21:30:31Z</time>
      </trkpt>
      <trkpt lat="44.1859" lon="3.24455">
        <ele>810</ele>
        <time>2020-01-04T21:30:32Z</time>
      </trkpt>
      <trkpt lat="44.18587" lon="3.24451">
        <ele>810</ele>
        <time>2020-01-04T21:30:33Z</time>
      </trkpt>
      <trkpt lat="44.18581" lon="3.24451">
        <ele>812</ele>
        <time>2020-01-04T21:30:35Z</time>
      </trkpt>
      <trkpt lat="44.18575" lon="3.24446">
        <ele>812</ele>
        <time>2020-01-04T21:30:36Z</time>
      </trkpt>
      <trkpt lat="44.18575" lon="3.24442">
        <ele>812</ele>
        <time>2020-01-04T21:30:37Z</time>
      </trkpt>
      <trkpt lat="44.18581" lon="3.24438">
        <ele>811</ele>
        <time>2020-01-04T21:30:39Z</time>
      </trkpt>
      <trkpt lat="44.18584" lon="3.24441">
        <ele>810</ele>
        <time>2020-01-04T21:30:39Z</time>
      </trkpt>
      <trkpt lat="44.18583" lon="3.24437">
        <ele>810</ele>
        <time>2020-01-04T21:30:40Z</time>
      </trkpt>
      <trkpt lat="44.18592" lon="3.24434">
        <ele>807</ele>
        <time>2020-01-04T21:30:42Z</time>
      </trkpt>
      <trkpt lat="44.18605" lon="3.24438">
        <ele>803</ele>
        <time>2020-01-04T21:30:45Z</time>
      </trkpt>
      <trkpt lat="44.18605" lon="3.24427">
        <ele>803</ele>
        <time>2020-01-04T21:30:47Z</time>
      </trkpt>
      <trkpt lat="44.18608" lon="3.24428">
        <ele>802</ele>
        <time>2020-01-04T21:30:48Z</time>
      </trkpt>
      <trkpt lat="44.18609" lon="3.24422">
        <ele>801</ele>
        <time>2020-01-04T21:30:49Z</time>
      </trkpt>
      <trkpt lat="44.18608" lon="3.24428">
        <ele>802</ele>
        <time>2020-01-04T21:30:50Z</time>
      </trkpt>
      <trkpt lat="44.18605" lon="3.24427">
        <ele>803</ele>
        <time>2020-01-04T21:30:51Z</time>
      </trkpt>
      <trkpt lat="44.18605" lon="3.24438">
        <ele>803</ele>
        <time>2020-01-04T21:30:53Z</time>
      </trkpt>
      <trkpt lat="44.18592" lon="3.24434">
        <ele>807</ele>
        <time>2020-01-04T21:30:56Z</time>
      </trkpt>
      <trkpt lat="44.1859" lon="3.24415">
        <ele>806</ele>
        <time>2020-01-04T21:30:59Z</time>
      </trkpt>
      <trkpt lat="44.18592" lon="3.24434">
        <ele>807</ele>
        <time>2020-01-04T21:31:02Z</time>
      </trkpt>
      <trkpt lat="44.18605" lon="3.24438">
        <ele>803</ele>
        <time>2020-01-04T21:31:05Z</time>
      </trkpt>
      <trkpt lat="44.18605" lon="3.24427">
        <ele>803</ele>
        <time>2020-01-04T21:31:07Z</time>
      </trkpt>
      <trkpt lat="44.18622" lon="3.24431">
        <ele>798</ele>
        <time>2020-01-04T21:31:11Z</time>
      </trkpt>
      <trkpt lat="44.18622" lon="3.24468">
        <ele>798</ele>
        <time>2020-01-04T21:31:17Z</time>
      </trkpt>
      <trkpt lat="44.18626" lon="3.24476">
        <ele>796</ele>
        <time>2020-01-04T21:31:19Z</time>
      </trkpt>
      <trkpt lat="44.18633" lon="3.24453">
        <ele>794</ele>
        <time>2020-01-04T21:31:23Z</time>
      </trkpt>
      <trkpt lat="44.18649" lon="3.24418">
        <ele>791</ele>
        <time>2020-01-04T21:31:30Z</time>
      </trkpt>
      <trkpt lat="44.18646" lon="3.24415">
        <ele>791</ele>
        <time>2020-01-04T21:31:31Z</time>
      </trkpt>
      <trkpt lat="44.18649" lon="3.24418">
        <ele>791</ele>
        <time>2020-01-04T21:31:32Z</time>
      </trkpt>
      <trkpt lat="44.18643" lon="3.24429">
        <ele>791</ele>
        <time>2020-01-04T21:31:34Z</time>
      </trkpt>
      <trkpt lat="44.18654" lon="3.24408">
        <ele>788</ele>
        <time>2020-01-04T21:31:39Z</time>
      </trkpt>
      <trkpt lat="44.18658" lon="3.24412">
        <ele>788</ele>
        <time>2020-01-04T21:31:40Z</time>
      </trkpt>
      <trkpt lat="44.1865" lon="3.24526">
        <ele>779</ele>
        <time>2020-01-04T21:31:59Z</time>
      </trkpt>
      <trkpt lat="44.18697" lon="3.24436">
        <ele>765</ele>
        <time>2020-01-04T21:32:18Z</time>
      </trkpt>
      <trkpt lat="44.18701" lon="3.2447">
        <ele>759</ele>
        <time>2020-01-04T21:32:23Z</time>
      </trkpt>
      <trkpt lat="44.1869" lon="3.24545">
        <ele>756</ele>
        <time>2020-01-04T21:32:36Z</time>
      </trkpt>
      <trkpt lat="44.18697" lon="3.24552">
        <ele>753</ele>
        <time>2020-01-04T21:32:38Z</time>
      </trkpt>
      <trkpt lat="44.18708" lon="3.24516">
        <ele>752</ele>
        <time>2020-01-04T21:32:45Z</time>
      </trkpt>
      <trkpt lat="44.18713" lon="3.24519">
        <ele>749</ele>
        <time>2020-01-04T21:32:46Z</time>
      </trkpt>
      <trkpt lat="44.18708" lon="3.24516">
        <ele>752</ele>
        <time>2020-01-04T21:32:47Z</time>
      </trkpt>
      <trkpt lat="44.18714" lon="3.24496">
        <ele>750</ele>
        <time>2020-01-04T21:32:51Z</time>
      </trkpt>
      <trkpt lat="44.18748" lon="3.24434">
        <ele>734</ele>
        <time>2020-01-04T21:33:04Z</time>
      </trkpt>
      <trkpt lat="44.18757" lon="3.24464">
        <ele>730</ele>
        <time>2020-01-04T21:33:09Z</time>
      </trkpt>
      <trkpt lat="44.18755" lon="3.24476">
        <ele>731</ele>
        <time>2020-01-04T21:33:11Z</time>
      </trkpt>
      <trkpt lat="44.18759" lon="3.24492">
        <ele>729</ele>
        <time>2020-01-04T21:33:14Z</time>
      </trkpt>
      <trkpt lat="44.18755" lon="3.24511">
        <ele>730</ele>
        <time>2020-01-04T21:33:18Z</time>
      </trkpt>
      <trkpt lat="44.18757" lon="3.24522">
        <ele>730</ele>
        <time>2020-01-04T21:33:19Z</time>
      </trkpt>
      <trkpt lat="44.18761" lon="3.24534">
        <ele>730</ele>
        <time>2020-01-04T21:33:22Z</time>
      </trkpt>
      <trkpt lat="44.18768" lon="3.24537">
        <ele>730</ele>
        <time>2020-01-04T21:33:23Z</time>
      </trkpt>
      <trkpt lat="44.18772" lon="3.24558">
        <ele>732</ele>
        <time>2020-01-04T21:33:27Z</time>
      </trkpt>
      <trkpt lat="44.18778" lon="3.24552">
        <ele>731</ele>
        <time>2020-01-04T21:33:29Z</time>
      </trkpt>
      <trkpt lat="44.18789" lon="3.24528">
        <ele>728</ele>
        <time>2020-01-04T21:33:34Z</time>
      </trkpt>
      <trkpt lat="44.18802" lon="3.24513">
        <ele>724</ele>
        <time>2020-01-04T21:33:37Z</time>
      </trkpt>
      <trkpt lat="44.18834" lon="3.24494">
        <ele>715</ele>
        <time>2020-01-04T21:33:46Z</time>
      </trkpt>
      <trkpt lat="44.18843" lon="3.24485">
        <ele>711</ele>
        <time>2020-01-04T21:33:48Z</time>
      </trkpt>
      <trkpt lat="44.18851" lon="3.24472">
        <ele>707</ele>
        <time>2020-01-04T21:33:51Z</time>
      </trkpt>
      <trkpt lat="44.18849" lon="3.24461">
        <ele>708</ele>
        <time>2020-01-04T21:33:53Z</time>
      </trkpt>
      <trkpt lat="44.18868" lon="3.24455">
        <ele>701</ele>
        <time>2020-01-04T21:33:57Z</time>
      </trkpt>
      <trkpt lat="44.18849" lon="3.24461">
        <ele>708</ele>
        <time>2020-01-04T21:34:02Z</time>
      </trkpt>
      <trkpt lat="44.18851" lon="3.24472">
        <ele>707</ele>
        <time>2020-01-04T21:34:04Z</time>
      </trkpt>
      <trkpt lat="44.18858" lon="3.24481">
        <ele>705</ele>
        <time>2020-01-04T21:34:06Z</time>
      </trkpt>
      <trkpt lat="44.18862" lon="3.24502">
        <ele>704</ele>
        <time>2020-01-04T21:34:10Z</time>
      </trkpt>
      <trkpt lat="44.18871" lon="3.2453">
        <ele>706</ele>
        <time>2020-01-04T21:34:15Z</time>
      </trkpt>
      <trkpt lat="44.18903" lon="3.24558">
        <ele>695</ele>
        <time>2020-01-04T21:34:24Z</time>
      </trkpt>
      <trkpt lat="44.18909" lon="3.24569">
        <ele>693</ele>
        <time>2020-01-04T21:34:26Z</time>
      </trkpt>
      <trkpt lat="44.18918" lon="3.24597">
        <ele>692</ele>
        <time>2020-01-04T21:34:31Z</time>
      </trkpt>
      <trkpt lat="44.18922" lon="3.24599">
        <ele>690</ele>
        <time>2020-01-04T21:34:32Z</time>
      </trkpt>
      <trkpt lat="44.18922" lon="3.24582">
        <ele>687</ele>
        <time>2020-01-04T21:34:35Z</time>
      </trkpt>
      <trkpt lat="44.18926" lon="3.24584">
        <ele>684</ele>
        <time>2020-01-04T21:34:36Z</time>
      </trkpt>
      <trkpt lat="44.18929" lon="3.2459">
        <ele>683</ele>
        <time>2020-01-04T21:34:37Z</time>
      </trkpt>
      <trkpt lat="44.18933" lon="3.2459">
        <ele>680</ele>
        <time>2020-01-04T21:34:38Z</time>
      </trkpt>
      <trkpt lat="44.18934" lon="3.24596">
        <ele>681</ele>
        <time>2020-01-04T21:34:39Z</time>
      </trkpt>
      <trkpt lat="44.18935" lon="3.24554">
        <ele>673</ele>
        <time>2020-01-04T21:34:46Z</time>
      </trkpt>
      <trkpt lat="44.18933" lon="3.24539">
        <ele>672</ele>
        <time>2020-01-04T21:34:49Z</time>
      </trkpt>
      <trkpt lat="44.18941" lon="3.24532">
        <ele>665</ele>
        <time>2020-01-04T21:34:51Z</time>
      </trkpt>
      <trkpt lat="44.18952" lon="3.24554">
        <ele>660</ele>
        <time>2020-01-04T21:34:56Z</time>
      </trkpt>
      <trkpt lat="44.18957" lon="3.24575">
        <ele>659</ele>
        <time>2020-01-04T21:34:59Z</time>
      </trkpt>
      <trkpt lat="44.18965" lon="3.24594">
        <ele>657</ele>
        <time>2020-01-04T21:35:03Z</time>
      </trkpt>
      <trkpt lat="44.18969" lon="3.24513">
        <ele>642</ele>
        <time>2020-01-04T21:35:17Z</time>
      </trkpt>
      <trkpt lat="44.18978" lon="3.24431">
        <ele>624</ele>
        <time>2020-01-04T21:35:30Z</time>
      </trkpt>
      <trkpt lat="44.19017" lon="3.24457">
        <ele>597</ele>
        <time>2020-01-04T21:35:40Z</time>
      </trkpt>
      <trkpt lat="44.19008" lon="3.24382">
        <ele>582</ele>
        <time>2020-01-04T21:35:53Z</time>
      </trkpt>
      <trkpt lat="44.19072" lon="3.24453">
        <ele>562</ele>
        <time>2020-01-04T21:36:12Z</time>
      </trkpt>
      <trkpt lat="44.19051" lon="3.24404">
        <ele>562</ele>
        <time>2020-01-04T21:36:22Z</time>
      </trkpt>
      <trkpt lat="44.19098" lon="3.24421">
        <ele>541</ele>
        <time>2020-01-04T21:36:33Z</time>
      </trkpt>
      <trkpt lat="44.19066" lon="3.24382">
        <ele>545</ele>
        <time>2020-01-04T21:36:43Z</time>
      </trkpt>
      <trkpt lat="44.19065" lon="3.24373">
        <ele>543</ele>
        <time>2020-01-04T21:36:45Z</time>
      </trkpt>
      <trkpt lat="44.19062" lon="3.24374">
        <ele>545</ele>
        <time>2020-01-04T21:36:45Z</time>
      </trkpt>
      <trkpt lat="44.19065" lon="3.24373">
        <ele>543</ele>
        <time>2020-01-04T21:36:46Z</time>
      </trkpt>
      <trkpt lat="44.1906" lon="3.24326">
        <ele>532</ele>
        <time>2020-01-04T21:36:54Z</time>
      </trkpt>
      <trkpt lat="44.19062" lon="3.24288">
        <ele>521</ele>
        <time>2020-01-04T21:37:00Z</time>
      </trkpt>
      <trkpt lat="44.19057" lon="3.2424">
        <ele>512</ele>
        <time>2020-01-04T21:37:09Z</time>
      </trkpt>
      <trkpt lat="44.19051" lon="3.24193">
        <ele>502</ele>
        <time>2020-01-04T21:37:17Z</time>
      </trkpt>
      <trkpt lat="44.19034" lon="3.24122">
        <ele>494</ele>
        <time>2020-01-04T21:37:29Z</time>
      </trkpt>
      <trkpt lat="44.19046" lon="3.24174">
        <ele>500</ele>
        <time>2020-01-04T21:37:38Z</time>
      </trkpt>
      <trkpt lat="44.19055" lon="3.2417">
        <ele>492</ele>
        <time>2020-01-04T21:37:40Z</time>
      </trkpt>
      <trkpt lat="44.19046" lon="3.24174">
        <ele>500</ele>
        <time>2020-01-04T21:37:43Z</time>
      </trkpt>
      <trkpt lat="44.19034" lon="3.24122">
        <ele>494</ele>
        <time>2020-01-04T21:37:52Z</time>
      </trkpt>
      <trkpt lat="44.19025" lon="3.24024">
        <ele>470</ele>
        <time>2020-01-04T21:38:08Z</time>
      </trkpt>
      <trkpt lat="44.19027" lon="3.2404">
        <ele>474</ele>
        <time>2020-01-04T21:38:11Z</time>
      </trkpt>
      <trkpt lat="44.19022" lon="3.24008">
        <ele>467</ele>
        <time>2020-01-04T21:38:17Z</time>
      </trkpt>
      <trkpt lat="44.19035" lon="3.24002">
        <ele>459</ele>
        <time>2020-01-04T21:38:20Z</time>
      </trkpt>
      <trkpt lat="44.19022" lon="3.24008">
        <ele>467</ele>
        <time>2020-01-04T21:38:23Z</time>
      </trkpt>
      <trkpt lat="44.19014" lon="3.23977">
        <ele>464</ele>
        <time>2020-01-04T21:38:28Z</time>
      </trkpt>
      <trkpt lat="44.18987" lon="3.23949">
        <ele>471</ele>
        <time>2020-01-04T21:38:36Z</time>
      </trkpt>
      <trkpt lat="44.18991" lon="3.23953">
        <ele>470</ele>
        <time>2020-01-04T21:38:37Z</time>
      </trkpt>
      <trkpt lat="44.18987" lon="3.23949">
        <ele>471</ele>
        <time>2020-01-04T21:38:39Z</time>
      </trkpt>
      <trkpt lat="44.18991" lon="3.23914">
        <ele>464</ele>
        <time>2020-01-04T21:38:45Z</time>
      </trkpt>
      <trkpt lat="44.19004" lon="3.23861">
        <ele>455</ele>
        <time>2020-01-04T21:38:54Z</time>
      </trkpt>
      <trkpt lat="44.18991" lon="3.23786">
        <ele>456</ele>
        <time>2020-01-04T21:39:07Z</time>
      </trkpt>
      <trkpt lat="44.18974" lon="3.23732">
        <ele>463</ele>
        <time>2020-01-04T21:39:17Z</time>
      </trkpt>
      <trkpt lat="44.18974" lon="3.23698">
        <ele>460</ele>
        <time>2020-01-04T21:39:22Z</time>
      </trkpt>
      <trkpt lat="44.18965" lon="3.23655">
        <ele>462</ele>
        <time>2020-01-04T21:39:30Z</time>
      </trkpt>
      <trkpt lat="44.18959" lon="3.23541">
        <ele>457</ele>
        <time>2020-01-04T21:39:49Z</time>
      </trkpt>
      <trkpt lat="44.18963" lon="3.23489">
        <ele>452</ele>
        <time>2020-01-04T21:39:58Z</time>
      </trkpt>
      <trkpt lat="44.18944" lon="3.23429">
        <ele>456</ele>
        <time>2020-01-04T21:40:09Z</time>
      </trkpt>
      <trkpt lat="44.18961" lon="3.23382">
        <ele>447</ele>
        <time>2020-01-04T21:40:18Z</time>
      </trkpt>
      <trkpt lat="44.18959" lon="3.23307">
        <ele>446</ele>
        <time>2020-01-04T21:40:30Z</time>
      </trkpt>
      <trkpt lat="44.18954" lon="3.23271">
        <ele>447</ele>
        <time>2020-01-04T21:40:36Z</time>
      </trkpt>
      <trkpt lat="44.18954" lon="3.23215">
        <ele>447</ele>
        <time>2020-01-04T21:40:46Z</time>
      </trkpt>
      <trkpt lat="44.18948" lon="3.23189">
        <ele>450</ele>
        <time>2020-01-04T21:40:50Z</time>
      </trkpt>
      <trkpt lat="44.18948" lon="3.23159">
        <ele>451</ele>
        <time>2020-01-04T21:40:55Z</time>
      </trkpt>
      <trkpt lat="44.1895" lon="3.2312">
        <ele>450</ele>
        <time>2020-01-04T21:41:02Z</time>
      </trkpt>
      <trkpt lat="44.18965" lon="3.23043">
        <ele>444</ele>
        <time>2020-01-04T21:41:15Z</time>
      </trkpt>
      <trkpt lat="44.18963" lon="3.23">
        <ele>446</ele>
        <time>2020-01-04T21:41:22Z</time>
      </trkpt>
      <trkpt lat="44.18974" lon="3.22904">
        <ele>441</ele>
        <time>2020-01-04T21:41:39Z</time>
      </trkpt>
      <trkpt lat="44.1898" lon="3.22741">
        <ele>439</ele>
        <time>2020-01-04T21:42:06Z</time>
      </trkpt>
      <trkpt lat="44.18987" lon="3.227">
        <ele>435</ele>
        <time>2020-01-04T21:42:13Z</time>
      </trkpt>
      <trkpt lat="44.19004" lon="3.22644">
        <ele>430</ele>
        <time>2020-01-04T21:42:23Z</time>
      </trkpt>
      <trkpt lat="44.19027" lon="3.22605">
        <ele>428</ele>
        <time>2020-01-04T21:42:32Z</time>
      </trkpt>
      <trkpt lat="44.19051" lon="3.2259">
        <ele>423</ele>
        <time>2020-01-04T21:42:38Z</time>
      </trkpt>
      <trkpt lat="44.1906" lon="3.22569">
        <ele>421</ele>
        <time>2020-01-04T21:42:42Z</time>
      </trkpt>
      <trkpt lat="44.1907" lon="3.22524">
        <ele>419</ele>
        <time>2020-01-04T21:42:50Z</time>
      </trkpt>
      <trkpt lat="44.19064" lon="3.22442">
        <ele>421</ele>
        <time>2020-01-04T21:43:04Z</time>
      </trkpt>
      <trkpt lat="44.19068" lon="3.22371">
        <ele>416</ele>
        <time>2020-01-04T21:43:16Z</time>
      </trkpt>
      <trkpt lat="44.19079" lon="3.22256">
        <ele>410</ele>
        <time>2020-01-04T21:43:35Z</time>
      </trkpt>
      <trkpt lat="44.19075" lon="3.22103">
        <ele>414</ele>
        <time>2020-01-04T21:44:01Z</time>
      </trkpt>
      <trkpt lat="44.19066" lon="3.22009">
        <ele>421</ele>
        <time>2020-01-04T21:44:17Z</time>
      </trkpt>
      <trkpt lat="44.19072" lon="3.21959">
        <ele>418</ele>
        <time>2020-01-04T21:44:25Z</time>
      </trkpt>
      <trkpt lat="44.19068" lon="3.21867">
        <ele>417</ele>
        <time>2020-01-04T21:44:40Z</time>
      </trkpt>
      <trkpt lat="44.19062" lon="3.21814">
        <ele>417</ele>
        <time>2020-01-04T21:44:49Z</time>
      </trkpt>
      <trkpt lat="44.19034" lon="3.21728">
        <ele>421</ele>
        <time>2020-01-04T21:45:05Z</time>
      </trkpt>
      <trkpt lat="44.19002" lon="3.21672">
        <ele>416</ele>
        <time>2020-01-04T21:45:17Z</time>
      </trkpt>
      <trkpt lat="44.18991" lon="3.21629">
        <ele>418</ele>
        <time>2020-01-04T21:45:25Z</time>
      </trkpt>
      <trkpt lat="44.18972" lon="3.21584">
        <ele>425</ele>
        <time>2020-01-04T21:45:34Z</time>
      </trkpt>
      <trkpt lat="44.18974" lon="3.21573">
        <ele>423</ele>
        <time>2020-01-04T21:45:36Z</time>
      </trkpt>
      <trkpt lat="44.18972" lon="3.21541">
        <ele>421</ele>
        <time>2020-01-04T21:45:41Z</time>
      </trkpt>
      <trkpt lat="44.18974" lon="3.21505">
        <ele>417</ele>
        <time>2020-01-04T21:45:47Z</time>
      </trkpt>
      <trkpt lat="44.18963" lon="3.21485">
        <ele>421</ele>
        <time>2020-01-04T21:45:51Z</time>
      </trkpt>
      <trkpt lat="44.18963" lon="3.21455">
        <ele>419</ele>
        <time>2020-01-04T21:45:56Z</time>
      </trkpt>
      <trkpt lat="44.18957" lon="3.21423">
        <ele>420</ele>
        <time>2020-01-04T21:46:02Z</time>
      </trkpt>
      <trkpt lat="44.18954" lon="3.21348">
        <ele>414</ele>
        <time>2020-01-04T21:46:14Z</time>
      </trkpt>
      <trkpt lat="44.18957" lon="3.21264">
        <ele>411</ele>
        <time>2020-01-04T21:46:28Z</time>
      </trkpt>
      <trkpt lat="44.18967" lon="3.21213">
        <ele>408</ele>
        <time>2020-01-04T21:46:37Z</time>
      </trkpt>
      <trkpt lat="44.18965" lon="3.21189">
        <ele>408</ele>
        <time>2020-01-04T21:46:41Z</time>
      </trkpt>
      <trkpt lat="44.18952" lon="3.21121">
        <ele>407</ele>
        <time>2020-01-04T21:46:53Z</time>
      </trkpt>
      <trkpt lat="44.1895" lon="3.21086">
        <ele>405</ele>
        <time>2020-01-04T21:46:59Z</time>
      </trkpt>
      <trkpt lat="44.18884" lon="3.21039">
        <ele>414</ele>
        <time>2020-01-04T21:47:16Z</time>
      </trkpt>
      <trkpt lat="44.18871" lon="3.21018">
        <ele>415</ele>
        <time>2020-01-04T21:47:21Z</time>
      </trkpt>
      <trkpt lat="44.18817" lon="3.20964">
        <ele>421</ele>
        <time>2020-01-04T21:47:36Z</time>
      </trkpt>
      <trkpt lat="44.18811" lon="3.20942">
        <ele>423</ele>
        <time>2020-01-04T21:47:40Z</time>
      </trkpt>
      <trkpt lat="44.18811" lon="3.2091">
        <ele>425</ele>
        <time>2020-01-04T21:47:46Z</time>
      </trkpt>
      <trkpt lat="44.18813" lon="3.20906">
        <ele>425</ele>
        <time>2020-01-04T21:47:47Z</time>
      </trkpt>
      <trkpt lat="44.18821" lon="3.20906">
        <ele>424</ele>
        <time>2020-01-04T21:47:48Z</time>
      </trkpt>
      <trkpt lat="44.18821" lon="3.20902">
        <ele>425</ele>
        <time>2020-01-04T21:47:49Z</time>
      </trkpt>
      <trkpt lat="44.18839" lon="3.20904">
        <ele>424</ele>
        <time>2020-01-04T21:47:53Z</time>
      </trkpt>
    </trkseg>
  </trk>
</gpx>